<?xml version="1.0" encoding="UTF-8" standalone="no" ?>
<gpx xmlns="http://www.topografix.com/GPX/1/1" xmlns:xsi="http://www.w3.org/2001/XMLSchema-instance" xsi:schemaLocation="http://www.topografix.com/GPX/1/1 http://www.topografix.com/GPX/1/1/gpx.xsd" version="1.1" creator="VisuGPX - https://www.visugpx.com">
  <metadata>
    <name>Chalon-sur-Saône / Lyon à vélo</name>
    <desc><![CDATA[Chalon-sur-Saône / Lyon à vélo]]></desc>
  </metadata>
  <trk>
    <name><![CDATA[07-SEP-12 13:03:11]]></name>
    <trkseg>
      <trkpt lat="46.32947" lon="4.84472">
        <ele>119.82</ele>
        <time>2012-09-07T07:32:35Z</time>
      </trkpt>
      <trkpt lat="46.32947" lon="4.84475">
        <ele>119.34</ele>
        <time>2012-09-07T07:32:36Z</time>
      </trkpt>
      <trkpt lat="46.32947" lon="4.84477">
        <ele>119.34</ele>
        <time>2012-09-07T07:32:37Z</time>
      </trkpt>
      <trkpt lat="46.32942" lon="4.84481">
        <ele>118.38</ele>
        <time>2012-09-07T07:32:53Z</time>
      </trkpt>
      <trkpt lat="46.32947" lon="4.84482">
        <ele>119.82</ele>
        <time>2012-09-07T07:33:16Z</time>
      </trkpt>
      <trkpt lat="46.32951" lon="4.84483">
        <ele>123.67</ele>
        <time>2012-09-07T07:33:27Z</time>
      </trkpt>
      <trkpt lat="46.32951" lon="4.84482">
        <ele>131.84</ele>
        <time>2012-09-07T07:33:30Z</time>
      </trkpt>
      <trkpt lat="46.32951" lon="4.84481">
        <ele>131.36</ele>
        <time>2012-09-07T07:33:31Z</time>
      </trkpt>
      <trkpt lat="46.3295" lon="4.8448">
        <ele>135.68</ele>
        <time>2012-09-07T07:33:34Z</time>
      </trkpt>
      <trkpt lat="46.3295" lon="4.8448">
        <ele>140.01</ele>
        <time>2012-09-07T07:33:37Z</time>
      </trkpt>
      <trkpt lat="46.32949" lon="4.84479">
        <ele>143.37</ele>
        <time>2012-09-07T07:33:40Z</time>
      </trkpt>
      <trkpt lat="46.32948" lon="4.84479">
        <ele>147.22</ele>
        <time>2012-09-07T07:33:43Z</time>
      </trkpt>
      <trkpt lat="46.32947" lon="4.84479">
        <ele>150.1</ele>
        <time>2012-09-07T07:33:46Z</time>
      </trkpt>
      <trkpt lat="46.32946" lon="4.8448">
        <ele>153.95</ele>
        <time>2012-09-07T07:33:50Z</time>
      </trkpt>
      <trkpt lat="46.32945" lon="4.84479">
        <ele>157.31</ele>
        <time>2012-09-07T07:33:54Z</time>
      </trkpt>
      <trkpt lat="46.32946" lon="4.8448">
        <ele>160.68</ele>
        <time>2012-09-07T07:33:59Z</time>
      </trkpt>
      <trkpt lat="46.32946" lon="4.8448">
        <ele>162.12</ele>
        <time>2012-09-07T07:34:03Z</time>
      </trkpt>
      <trkpt lat="46.32947" lon="4.84481">
        <ele>165.48</ele>
        <time>2012-09-07T07:34:10Z</time>
      </trkpt>
      <trkpt lat="46.32946" lon="4.84478">
        <ele>168.85</ele>
        <time>2012-09-07T07:34:18Z</time>
      </trkpt>
      <trkpt lat="46.32946" lon="4.84478">
        <ele>169.33</ele>
        <time>2012-09-07T07:34:19Z</time>
      </trkpt>
      <trkpt lat="46.32948" lon="4.84479">
        <ele>172.21</ele>
        <time>2012-09-07T07:34:28Z</time>
      </trkpt>
      <trkpt lat="46.32948" lon="4.8448">
        <ele>176.06</ele>
        <time>2012-09-07T07:34:38Z</time>
      </trkpt>
      <trkpt lat="46.3295" lon="4.84481">
        <ele>177.98</ele>
        <time>2012-09-07T07:35:16Z</time>
      </trkpt>
      <trkpt lat="46.3295" lon="4.8448">
        <ele>178.46</ele>
        <time>2012-09-07T07:35:49Z</time>
      </trkpt>
      <trkpt lat="46.32949" lon="4.8448">
        <ele>178.46</ele>
        <time>2012-09-07T07:36:19Z</time>
      </trkpt>
      <trkpt lat="46.32949" lon="4.8448">
        <ele>178.94</ele>
        <time>2012-09-07T07:36:45Z</time>
      </trkpt>
      <trkpt lat="46.32949" lon="4.8448">
        <ele>178.94</ele>
        <time>2012-09-07T07:37:18Z</time>
      </trkpt>
      <trkpt lat="46.32948" lon="4.84479">
        <ele>178.94</ele>
        <time>2012-09-07T07:37:53Z</time>
      </trkpt>
      <trkpt lat="46.32949" lon="4.84479">
        <ele>178.94</ele>
        <time>2012-09-07T07:38:24Z</time>
      </trkpt>
      <trkpt lat="46.32949" lon="4.8448">
        <ele>178.94</ele>
        <time>2012-09-07T07:38:53Z</time>
      </trkpt>
      <trkpt lat="46.32951" lon="4.84479">
        <ele>178.94</ele>
        <time>2012-09-07T07:39:25Z</time>
      </trkpt>
      <trkpt lat="46.32951" lon="4.84479">
        <ele>179.42</ele>
        <time>2012-09-07T07:39:53Z</time>
      </trkpt>
      <trkpt lat="46.32944" lon="4.84479">
        <ele>179.42</ele>
        <time>2012-09-07T07:40:08Z</time>
      </trkpt>
      <trkpt lat="46.32941" lon="4.84484">
        <ele>179.42</ele>
        <time>2012-09-07T07:40:22Z</time>
      </trkpt>
      <trkpt lat="46.32941" lon="4.84485">
        <ele>179.42</ele>
        <time>2012-09-07T07:40:23Z</time>
      </trkpt>
      <trkpt lat="46.32938" lon="4.84514">
        <ele>178.94</ele>
        <time>2012-09-07T07:40:32Z</time>
      </trkpt>
      <trkpt lat="46.32949" lon="4.84505">
        <ele>178.94</ele>
        <time>2012-09-07T07:40:41Z</time>
      </trkpt>
      <trkpt lat="46.32958" lon="4.8446">
        <ele>179.42</ele>
        <time>2012-09-07T07:40:56Z</time>
      </trkpt>
      <trkpt lat="46.32985" lon="4.84412">
        <ele>179.42</ele>
        <time>2012-09-07T07:41:10Z</time>
      </trkpt>
      <trkpt lat="46.33023" lon="4.84407">
        <ele>179.42</ele>
        <time>2012-09-07T07:41:23Z</time>
      </trkpt>
      <trkpt lat="46.33031" lon="4.84411">
        <ele>178.94</ele>
        <time>2012-09-07T07:41:26Z</time>
      </trkpt>
      <trkpt lat="46.33042" lon="4.8439">
        <ele>178.94</ele>
        <time>2012-09-07T07:41:35Z</time>
      </trkpt>
      <trkpt lat="46.33073" lon="4.84355">
        <ele>178.94</ele>
        <time>2012-09-07T07:41:46Z</time>
      </trkpt>
      <trkpt lat="46.33073" lon="4.84345">
        <ele>179.42</ele>
        <time>2012-09-07T07:41:51Z</time>
      </trkpt>
      <trkpt lat="46.33064" lon="4.84334">
        <ele>178.94</ele>
        <time>2012-09-07T07:41:57Z</time>
      </trkpt>
      <trkpt lat="46.33048" lon="4.84329">
        <ele>179.42</ele>
        <time>2012-09-07T07:42:03Z</time>
      </trkpt>
      <trkpt lat="46.3303" lon="4.84321">
        <ele>179.42</ele>
        <time>2012-09-07T07:42:15Z</time>
      </trkpt>
      <trkpt lat="46.33028" lon="4.84321">
        <ele>178.94</ele>
        <time>2012-09-07T07:42:36Z</time>
      </trkpt>
      <trkpt lat="46.32996" lon="4.84322">
        <ele>179.42</ele>
        <time>2012-09-07T07:42:48Z</time>
      </trkpt>
      <trkpt lat="46.32938" lon="4.84338">
        <ele>179.42</ele>
        <time>2012-09-07T07:43:02Z</time>
      </trkpt>
      <trkpt lat="46.3293" lon="4.84338">
        <ele>179.42</ele>
        <time>2012-09-07T07:43:04Z</time>
      </trkpt>
      <trkpt lat="46.32907" lon="4.84335">
        <ele>179.42</ele>
        <time>2012-09-07T07:43:09Z</time>
      </trkpt>
      <trkpt lat="46.3286" lon="4.84316">
        <ele>179.42</ele>
        <time>2012-09-07T07:43:20Z</time>
      </trkpt>
      <trkpt lat="46.32786" lon="4.84285">
        <ele>178.94</ele>
        <time>2012-09-07T07:43:38Z</time>
      </trkpt>
      <trkpt lat="46.32765" lon="4.84276">
        <ele>178.94</ele>
        <time>2012-09-07T07:43:50Z</time>
      </trkpt>
      <trkpt lat="46.32762" lon="4.84276">
        <ele>178.94</ele>
        <time>2012-09-07T07:43:51Z</time>
      </trkpt>
      <trkpt lat="46.32759" lon="4.84276">
        <ele>178.94</ele>
        <time>2012-09-07T07:43:52Z</time>
      </trkpt>
      <trkpt lat="46.32757" lon="4.84275">
        <ele>178.94</ele>
        <time>2012-09-07T07:43:53Z</time>
      </trkpt>
      <trkpt lat="46.32702" lon="4.8425">
        <ele>178.94</ele>
        <time>2012-09-07T07:44:08Z</time>
      </trkpt>
      <trkpt lat="46.32672" lon="4.84241">
        <ele>178.94</ele>
        <time>2012-09-07T07:44:15Z</time>
      </trkpt>
      <trkpt lat="46.32669" lon="4.84239">
        <ele>178.94</ele>
        <time>2012-09-07T07:44:16Z</time>
      </trkpt>
      <trkpt lat="46.32617" lon="4.84217">
        <ele>178.94</ele>
        <time>2012-09-07T07:44:28Z</time>
      </trkpt>
      <trkpt lat="46.32532" lon="4.84185">
        <ele>178.94</ele>
        <time>2012-09-07T07:44:47Z</time>
      </trkpt>
      <trkpt lat="46.32492" lon="4.84172">
        <ele>178.94</ele>
        <time>2012-09-07T07:44:58Z</time>
      </trkpt>
      <trkpt lat="46.32491" lon="4.84174">
        <ele>179.42</ele>
        <time>2012-09-07T07:44:59Z</time>
      </trkpt>
      <trkpt lat="46.32491" lon="4.84191">
        <ele>179.42</ele>
        <time>2012-09-07T07:45:04Z</time>
      </trkpt>
      <trkpt lat="46.32514" lon="4.8428">
        <ele>179.42</ele>
        <time>2012-09-07T07:45:21Z</time>
      </trkpt>
      <trkpt lat="46.32548" lon="4.84407">
        <ele>178.94</ele>
        <time>2012-09-07T07:45:42Z</time>
      </trkpt>
      <trkpt lat="46.32563" lon="4.84466">
        <ele>178.46</ele>
        <time>2012-09-07T07:45:51Z</time>
      </trkpt>
      <trkpt lat="46.32562" lon="4.84472">
        <ele>178.46</ele>
        <time>2012-09-07T07:45:52Z</time>
      </trkpt>
      <trkpt lat="46.3256" lon="4.84478">
        <ele>178.46</ele>
        <time>2012-09-07T07:45:53Z</time>
      </trkpt>
      <trkpt lat="46.32558" lon="4.84484">
        <ele>177.98</ele>
        <time>2012-09-07T07:45:54Z</time>
      </trkpt>
      <trkpt lat="46.32557" lon="4.8449">
        <ele>177.98</ele>
        <time>2012-09-07T07:45:55Z</time>
      </trkpt>
      <trkpt lat="46.32558" lon="4.84496">
        <ele>177.98</ele>
        <time>2012-09-07T07:45:56Z</time>
      </trkpt>
      <trkpt lat="46.3256" lon="4.845">
        <ele>177.98</ele>
        <time>2012-09-07T07:45:57Z</time>
      </trkpt>
      <trkpt lat="46.32564" lon="4.84502">
        <ele>177.98</ele>
        <time>2012-09-07T07:45:58Z</time>
      </trkpt>
      <trkpt lat="46.32568" lon="4.84503">
        <ele>177.98</ele>
        <time>2012-09-07T07:45:59Z</time>
      </trkpt>
      <trkpt lat="46.32571" lon="4.84504">
        <ele>177.98</ele>
        <time>2012-09-07T07:46:00Z</time>
      </trkpt>
      <trkpt lat="46.32575" lon="4.84506">
        <ele>177.98</ele>
        <time>2012-09-07T07:46:01Z</time>
      </trkpt>
      <trkpt lat="46.32577" lon="4.8451">
        <ele>177.98</ele>
        <time>2012-09-07T07:46:02Z</time>
      </trkpt>
      <trkpt lat="46.32579" lon="4.84514">
        <ele>177.98</ele>
        <time>2012-09-07T07:46:03Z</time>
      </trkpt>
      <trkpt lat="46.32581" lon="4.84519">
        <ele>177.98</ele>
        <time>2012-09-07T07:46:04Z</time>
      </trkpt>
      <trkpt lat="46.32582" lon="4.84524">
        <ele>177.98</ele>
        <time>2012-09-07T07:46:05Z</time>
      </trkpt>
      <trkpt lat="46.32583" lon="4.8453">
        <ele>177.98</ele>
        <time>2012-09-07T07:46:06Z</time>
      </trkpt>
      <trkpt lat="46.32585" lon="4.84535">
        <ele>177.5</ele>
        <time>2012-09-07T07:46:07Z</time>
      </trkpt>
      <trkpt lat="46.32587" lon="4.8454">
        <ele>177.5</ele>
        <time>2012-09-07T07:46:08Z</time>
      </trkpt>
      <trkpt lat="46.32588" lon="4.84545">
        <ele>177.5</ele>
        <time>2012-09-07T07:46:09Z</time>
      </trkpt>
      <trkpt lat="46.32593" lon="4.84574">
        <ele>177.5</ele>
        <time>2012-09-07T07:46:14Z</time>
      </trkpt>
      <trkpt lat="46.32595" lon="4.8458">
        <ele>177.5</ele>
        <time>2012-09-07T07:46:15Z</time>
      </trkpt>
      <trkpt lat="46.32596" lon="4.84585">
        <ele>177.5</ele>
        <time>2012-09-07T07:46:16Z</time>
      </trkpt>
      <trkpt lat="46.32598" lon="4.8459">
        <ele>177.5</ele>
        <time>2012-09-07T07:46:17Z</time>
      </trkpt>
      <trkpt lat="46.32599" lon="4.84596">
        <ele>177.5</ele>
        <time>2012-09-07T07:46:18Z</time>
      </trkpt>
      <trkpt lat="46.32613" lon="4.84656">
        <ele>177.02</ele>
        <time>2012-09-07T07:46:32Z</time>
      </trkpt>
      <trkpt lat="46.32626" lon="4.84687">
        <ele>176.06</ele>
        <time>2012-09-07T07:46:40Z</time>
      </trkpt>
      <trkpt lat="46.32629" lon="4.8469">
        <ele>176.06</ele>
        <time>2012-09-07T07:46:51Z</time>
      </trkpt>
      <trkpt lat="46.3263" lon="4.84692">
        <ele>176.06</ele>
        <time>2012-09-07T07:46:53Z</time>
      </trkpt>
      <trkpt lat="46.32631" lon="4.84694">
        <ele>176.06</ele>
        <time>2012-09-07T07:46:54Z</time>
      </trkpt>
      <trkpt lat="46.32632" lon="4.84696">
        <ele>176.06</ele>
        <time>2012-09-07T07:46:55Z</time>
      </trkpt>
      <trkpt lat="46.32633" lon="4.84698">
        <ele>176.06</ele>
        <time>2012-09-07T07:46:56Z</time>
      </trkpt>
      <trkpt lat="46.32634" lon="4.84699">
        <ele>175.58</ele>
        <time>2012-09-07T07:46:57Z</time>
      </trkpt>
      <trkpt lat="46.32636" lon="4.84695">
        <ele>175.58</ele>
        <time>2012-09-07T07:47:09Z</time>
      </trkpt>
      <trkpt lat="46.32635" lon="4.84696">
        <ele>175.58</ele>
        <time>2012-09-07T07:47:36Z</time>
      </trkpt>
      <trkpt lat="46.32646" lon="4.84712">
        <ele>175.58</ele>
        <time>2012-09-07T07:47:46Z</time>
      </trkpt>
      <trkpt lat="46.32672" lon="4.84757">
        <ele>175.1</ele>
        <time>2012-09-07T07:47:58Z</time>
      </trkpt>
      <trkpt lat="46.32684" lon="4.84781">
        <ele>175.58</ele>
        <time>2012-09-07T07:48:03Z</time>
      </trkpt>
      <trkpt lat="46.32734" lon="4.84839">
        <ele>176.06</ele>
        <time>2012-09-07T07:48:18Z</time>
      </trkpt>
      <trkpt lat="46.32751" lon="4.84856">
        <ele>176.06</ele>
        <time>2012-09-07T07:48:23Z</time>
      </trkpt>
      <trkpt lat="46.32781" lon="4.84896">
        <ele>176.06</ele>
        <time>2012-09-07T07:48:32Z</time>
      </trkpt>
      <trkpt lat="46.32784" lon="4.84901">
        <ele>176.06</ele>
        <time>2012-09-07T07:48:33Z</time>
      </trkpt>
      <trkpt lat="46.32787" lon="4.84905">
        <ele>176.06</ele>
        <time>2012-09-07T07:48:34Z</time>
      </trkpt>
      <trkpt lat="46.3279" lon="4.84909">
        <ele>176.06</ele>
        <time>2012-09-07T07:48:35Z</time>
      </trkpt>
      <trkpt lat="46.32793" lon="4.84913">
        <ele>176.06</ele>
        <time>2012-09-07T07:48:36Z</time>
      </trkpt>
      <trkpt lat="46.32817" lon="4.84965">
        <ele>176.06</ele>
        <time>2012-09-07T07:48:47Z</time>
      </trkpt>
      <trkpt lat="46.32836" lon="4.85002">
        <ele>176.54</ele>
        <time>2012-09-07T07:48:54Z</time>
      </trkpt>
      <trkpt lat="46.3284" lon="4.85007">
        <ele>176.54</ele>
        <time>2012-09-07T07:48:55Z</time>
      </trkpt>
      <trkpt lat="46.32843" lon="4.85011">
        <ele>176.54</ele>
        <time>2012-09-07T07:48:56Z</time>
      </trkpt>
      <trkpt lat="46.32851" lon="4.85019">
        <ele>176.06</ele>
        <time>2012-09-07T07:48:58Z</time>
      </trkpt>
      <trkpt lat="46.32855" lon="4.85022">
        <ele>176.06</ele>
        <time>2012-09-07T07:48:59Z</time>
      </trkpt>
      <trkpt lat="46.3286" lon="4.85024">
        <ele>176.06</ele>
        <time>2012-09-07T07:49:00Z</time>
      </trkpt>
      <trkpt lat="46.32914" lon="4.85046">
        <ele>176.06</ele>
        <time>2012-09-07T07:49:12Z</time>
      </trkpt>
      <trkpt lat="46.32975" lon="4.85063">
        <ele>175.58</ele>
        <time>2012-09-07T07:49:27Z</time>
      </trkpt>
      <trkpt lat="46.3301" lon="4.85072">
        <ele>175.58</ele>
        <time>2012-09-07T07:49:37Z</time>
      </trkpt>
      <trkpt lat="46.33059" lon="4.8508">
        <ele>175.58</ele>
        <time>2012-09-07T07:49:49Z</time>
      </trkpt>
      <trkpt lat="46.33108" lon="4.85085">
        <ele>175.58</ele>
        <time>2012-09-07T07:50:01Z</time>
      </trkpt>
      <trkpt lat="46.33158" lon="4.85091">
        <ele>175.58</ele>
        <time>2012-09-07T07:50:14Z</time>
      </trkpt>
      <trkpt lat="46.33201" lon="4.85092">
        <ele>176.06</ele>
        <time>2012-09-07T07:50:25Z</time>
      </trkpt>
      <trkpt lat="46.33239" lon="4.85092">
        <ele>175.58</ele>
        <time>2012-09-07T07:50:36Z</time>
      </trkpt>
      <trkpt lat="46.33289" lon="4.85086">
        <ele>176.06</ele>
        <time>2012-09-07T07:50:49Z</time>
      </trkpt>
      <trkpt lat="46.3334" lon="4.85078">
        <ele>176.06</ele>
        <time>2012-09-07T07:51:02Z</time>
      </trkpt>
      <trkpt lat="46.33414" lon="4.85068">
        <ele>176.06</ele>
        <time>2012-09-07T07:51:18Z</time>
      </trkpt>
      <trkpt lat="46.33495" lon="4.85059">
        <ele>176.06</ele>
        <time>2012-09-07T07:51:35Z</time>
      </trkpt>
      <trkpt lat="46.335" lon="4.85058">
        <ele>176.06</ele>
        <time>2012-09-07T07:51:36Z</time>
      </trkpt>
      <trkpt lat="46.33592" lon="4.85054">
        <ele>176.06</ele>
        <time>2012-09-07T07:51:56Z</time>
      </trkpt>
      <trkpt lat="46.33604" lon="4.85055">
        <ele>175.58</ele>
        <time>2012-09-07T07:51:59Z</time>
      </trkpt>
      <trkpt lat="46.33634" lon="4.85059">
        <ele>175.58</ele>
        <time>2012-09-07T07:52:06Z</time>
      </trkpt>
      <trkpt lat="46.33687" lon="4.85063">
        <ele>175.58</ele>
        <time>2012-09-07T07:52:19Z</time>
      </trkpt>
      <trkpt lat="46.33758" lon="4.8507">
        <ele>175.58</ele>
        <time>2012-09-07T07:52:35Z</time>
      </trkpt>
      <trkpt lat="46.33807" lon="4.85076">
        <ele>176.06</ele>
        <time>2012-09-07T07:52:46Z</time>
      </trkpt>
      <trkpt lat="46.33868" lon="4.85083">
        <ele>177.02</ele>
        <time>2012-09-07T07:53:02Z</time>
      </trkpt>
      <trkpt lat="46.33912" lon="4.85081">
        <ele>177.02</ele>
        <time>2012-09-07T07:53:15Z</time>
      </trkpt>
      <trkpt lat="46.33948" lon="4.85074">
        <ele>177.02</ele>
        <time>2012-09-07T07:53:23Z</time>
      </trkpt>
      <trkpt lat="46.33952" lon="4.85072">
        <ele>177.02</ele>
        <time>2012-09-07T07:53:24Z</time>
      </trkpt>
      <trkpt lat="46.3399" lon="4.85072">
        <ele>175.58</ele>
        <time>2012-09-07T07:53:34Z</time>
      </trkpt>
      <trkpt lat="46.33993" lon="4.85072">
        <ele>175.58</ele>
        <time>2012-09-07T07:53:35Z</time>
      </trkpt>
      <trkpt lat="46.33997" lon="4.85074">
        <ele>175.1</ele>
        <time>2012-09-07T07:53:36Z</time>
      </trkpt>
      <trkpt lat="46.34074" lon="4.8509">
        <ele>175.1</ele>
        <time>2012-09-07T07:53:53Z</time>
      </trkpt>
      <trkpt lat="46.34145" lon="4.85104">
        <ele>175.1</ele>
        <time>2012-09-07T07:54:09Z</time>
      </trkpt>
      <trkpt lat="46.3419" lon="4.85111">
        <ele>175.58</ele>
        <time>2012-09-07T07:54:19Z</time>
      </trkpt>
      <trkpt lat="46.34254" lon="4.85118">
        <ele>175.58</ele>
        <time>2012-09-07T07:54:34Z</time>
      </trkpt>
      <trkpt lat="46.34316" lon="4.8512">
        <ele>175.1</ele>
        <time>2012-09-07T07:54:49Z</time>
      </trkpt>
      <trkpt lat="46.34365" lon="4.85113">
        <ele>175.1</ele>
        <time>2012-09-07T07:55:04Z</time>
      </trkpt>
      <trkpt lat="46.34408" lon="4.8511">
        <ele>175.1</ele>
        <time>2012-09-07T07:55:17Z</time>
      </trkpt>
      <trkpt lat="46.34439" lon="4.85107">
        <ele>175.1</ele>
        <time>2012-09-07T07:55:25Z</time>
      </trkpt>
      <trkpt lat="46.34513" lon="4.85104">
        <ele>175.1</ele>
        <time>2012-09-07T07:55:40Z</time>
      </trkpt>
      <trkpt lat="46.3459" lon="4.85099">
        <ele>175.1</ele>
        <time>2012-09-07T07:55:56Z</time>
      </trkpt>
      <trkpt lat="46.34656" lon="4.851">
        <ele>174.62</ele>
        <time>2012-09-07T07:56:12Z</time>
      </trkpt>
      <trkpt lat="46.34703" lon="4.85094">
        <ele>174.14</ele>
        <time>2012-09-07T07:56:25Z</time>
      </trkpt>
      <trkpt lat="46.34716" lon="4.85091">
        <ele>174.14</ele>
        <time>2012-09-07T07:56:28Z</time>
      </trkpt>
      <trkpt lat="46.34799" lon="4.85066">
        <ele>174.14</ele>
        <time>2012-09-07T07:56:48Z</time>
      </trkpt>
      <trkpt lat="46.34851" lon="4.85056">
        <ele>175.1</ele>
        <time>2012-09-07T07:57:01Z</time>
      </trkpt>
      <trkpt lat="46.34892" lon="4.85049">
        <ele>176.54</ele>
        <time>2012-09-07T07:57:14Z</time>
      </trkpt>
      <trkpt lat="46.3494" lon="4.85043">
        <ele>176.54</ele>
        <time>2012-09-07T07:57:26Z</time>
      </trkpt>
      <trkpt lat="46.34963" lon="4.85038">
        <ele>176.54</ele>
        <time>2012-09-07T07:57:31Z</time>
      </trkpt>
      <trkpt lat="46.34968" lon="4.85038">
        <ele>176.54</ele>
        <time>2012-09-07T07:57:32Z</time>
      </trkpt>
      <trkpt lat="46.34983" lon="4.85034">
        <ele>176.06</ele>
        <time>2012-09-07T07:57:35Z</time>
      </trkpt>
      <trkpt lat="46.34998" lon="4.85032">
        <ele>175.58</ele>
        <time>2012-09-07T07:57:38Z</time>
      </trkpt>
      <trkpt lat="46.35002" lon="4.85032">
        <ele>175.58</ele>
        <time>2012-09-07T07:57:39Z</time>
      </trkpt>
      <trkpt lat="46.35069" lon="4.85018">
        <ele>174.62</ele>
        <time>2012-09-07T07:57:53Z</time>
      </trkpt>
      <trkpt lat="46.35119" lon="4.85006">
        <ele>174.62</ele>
        <time>2012-09-07T07:58:06Z</time>
      </trkpt>
      <trkpt lat="46.35146" lon="4.85002">
        <ele>174.14</ele>
        <time>2012-09-07T07:58:12Z</time>
      </trkpt>
      <trkpt lat="46.35151" lon="4.85001">
        <ele>174.14</ele>
        <time>2012-09-07T07:58:13Z</time>
      </trkpt>
      <trkpt lat="46.35228" lon="4.84982">
        <ele>174.14</ele>
        <time>2012-09-07T07:58:30Z</time>
      </trkpt>
      <trkpt lat="46.35279" lon="4.84975">
        <ele>174.62</ele>
        <time>2012-09-07T07:58:43Z</time>
      </trkpt>
      <trkpt lat="46.35347" lon="4.84973">
        <ele>174.14</ele>
        <time>2012-09-07T07:58:58Z</time>
      </trkpt>
      <trkpt lat="46.35351" lon="4.84974">
        <ele>174.14</ele>
        <time>2012-09-07T07:58:59Z</time>
      </trkpt>
      <trkpt lat="46.35403" lon="4.84979">
        <ele>174.14</ele>
        <time>2012-09-07T07:59:11Z</time>
      </trkpt>
      <trkpt lat="46.35475" lon="4.8499">
        <ele>174.62</ele>
        <time>2012-09-07T07:59:27Z</time>
      </trkpt>
      <trkpt lat="46.35528" lon="4.84997">
        <ele>175.1</ele>
        <time>2012-09-07T07:59:40Z</time>
      </trkpt>
      <trkpt lat="46.35589" lon="4.85016">
        <ele>175.1</ele>
        <time>2012-09-07T07:59:54Z</time>
      </trkpt>
      <trkpt lat="46.35593" lon="4.85017">
        <ele>175.1</ele>
        <time>2012-09-07T07:59:55Z</time>
      </trkpt>
      <trkpt lat="46.35598" lon="4.85019">
        <ele>175.1</ele>
        <time>2012-09-07T07:59:56Z</time>
      </trkpt>
      <trkpt lat="46.35668" lon="4.8505">
        <ele>175.1</ele>
        <time>2012-09-07T08:00:12Z</time>
      </trkpt>
      <trkpt lat="46.35743" lon="4.85094">
        <ele>175.1</ele>
        <time>2012-09-07T08:00:30Z</time>
      </trkpt>
      <trkpt lat="46.35747" lon="4.85096">
        <ele>175.1</ele>
        <time>2012-09-07T08:00:31Z</time>
      </trkpt>
      <trkpt lat="46.35819" lon="4.85139">
        <ele>176.06</ele>
        <time>2012-09-07T08:00:49Z</time>
      </trkpt>
      <trkpt lat="46.35822" lon="4.85142">
        <ele>175.1</ele>
        <time>2012-09-07T08:00:50Z</time>
      </trkpt>
      <trkpt lat="46.3588" lon="4.8518">
        <ele>175.1</ele>
        <time>2012-09-07T08:01:04Z</time>
      </trkpt>
      <trkpt lat="46.35935" lon="4.85217">
        <ele>175.1</ele>
        <time>2012-09-07T08:01:17Z</time>
      </trkpt>
      <trkpt lat="46.35939" lon="4.85221">
        <ele>175.1</ele>
        <time>2012-09-07T08:01:18Z</time>
      </trkpt>
      <trkpt lat="46.35951" lon="4.85234">
        <ele>175.1</ele>
        <time>2012-09-07T08:01:21Z</time>
      </trkpt>
      <trkpt lat="46.36017" lon="4.85272">
        <ele>174.62</ele>
        <time>2012-09-07T08:01:37Z</time>
      </trkpt>
      <trkpt lat="46.36017" lon="4.85272">
        <ele>174.14</ele>
        <time>2012-09-07T08:01:52Z</time>
      </trkpt>
      <trkpt lat="46.36025" lon="4.85275">
        <ele>174.14</ele>
        <time>2012-09-07T08:02:17Z</time>
      </trkpt>
      <trkpt lat="46.36062" lon="4.85285">
        <ele>174.62</ele>
        <time>2012-09-07T08:02:30Z</time>
      </trkpt>
      <trkpt lat="46.36119" lon="4.853">
        <ele>175.1</ele>
        <time>2012-09-07T08:02:45Z</time>
      </trkpt>
      <trkpt lat="46.36188" lon="4.85325">
        <ele>176.54</ele>
        <time>2012-09-07T08:03:04Z</time>
      </trkpt>
      <trkpt lat="46.36223" lon="4.85335">
        <ele>176.54</ele>
        <time>2012-09-07T08:03:15Z</time>
      </trkpt>
      <trkpt lat="46.36236" lon="4.85339">
        <ele>176.54</ele>
        <time>2012-09-07T08:03:18Z</time>
      </trkpt>
      <trkpt lat="46.36257" lon="4.85347">
        <ele>177.02</ele>
        <time>2012-09-07T08:03:23Z</time>
      </trkpt>
      <trkpt lat="46.3627" lon="4.85354">
        <ele>176.54</ele>
        <time>2012-09-07T08:03:26Z</time>
      </trkpt>
      <trkpt lat="46.36341" lon="4.85385">
        <ele>177.5</ele>
        <time>2012-09-07T08:03:43Z</time>
      </trkpt>
      <trkpt lat="46.36385" lon="4.85409">
        <ele>177.98</ele>
        <time>2012-09-07T08:03:56Z</time>
      </trkpt>
      <trkpt lat="46.36435" lon="4.85442">
        <ele>177.98</ele>
        <time>2012-09-07T08:04:10Z</time>
      </trkpt>
      <trkpt lat="46.3645" lon="4.85451">
        <ele>177.98</ele>
        <time>2012-09-07T08:04:14Z</time>
      </trkpt>
      <trkpt lat="46.36454" lon="4.85454">
        <ele>177.98</ele>
        <time>2012-09-07T08:04:15Z</time>
      </trkpt>
      <trkpt lat="46.36509" lon="4.85497">
        <ele>177.02</ele>
        <time>2012-09-07T08:04:29Z</time>
      </trkpt>
      <trkpt lat="46.36577" lon="4.85554">
        <ele>176.54</ele>
        <time>2012-09-07T08:04:45Z</time>
      </trkpt>
      <trkpt lat="46.36627" lon="4.85597">
        <ele>175.58</ele>
        <time>2012-09-07T08:04:58Z</time>
      </trkpt>
      <trkpt lat="46.36684" lon="4.85637">
        <ele>176.06</ele>
        <time>2012-09-07T08:05:14Z</time>
      </trkpt>
      <trkpt lat="46.36727" lon="4.85669">
        <ele>176.54</ele>
        <time>2012-09-07T08:05:28Z</time>
      </trkpt>
      <trkpt lat="46.36777" lon="4.85707">
        <ele>176.54</ele>
        <time>2012-09-07T08:05:43Z</time>
      </trkpt>
      <trkpt lat="46.36811" lon="4.85729">
        <ele>176.06</ele>
        <time>2012-09-07T08:05:52Z</time>
      </trkpt>
      <trkpt lat="46.36867" lon="4.85768">
        <ele>176.06</ele>
        <time>2012-09-07T08:06:07Z</time>
      </trkpt>
      <trkpt lat="46.36917" lon="4.85801">
        <ele>176.54</ele>
        <time>2012-09-07T08:06:22Z</time>
      </trkpt>
      <trkpt lat="46.3697" lon="4.85844">
        <ele>176.06</ele>
        <time>2012-09-07T08:06:36Z</time>
      </trkpt>
      <trkpt lat="46.37029" lon="4.85888">
        <ele>176.54</ele>
        <time>2012-09-07T08:06:50Z</time>
      </trkpt>
      <trkpt lat="46.37063" lon="4.85916">
        <ele>176.06</ele>
        <time>2012-09-07T08:07:02Z</time>
      </trkpt>
      <trkpt lat="46.37067" lon="4.85919">
        <ele>176.06</ele>
        <time>2012-09-07T08:07:03Z</time>
      </trkpt>
      <trkpt lat="46.37122" lon="4.85968">
        <ele>176.54</ele>
        <time>2012-09-07T08:07:17Z</time>
      </trkpt>
      <trkpt lat="46.37169" lon="4.86011">
        <ele>176.54</ele>
        <time>2012-09-07T08:07:30Z</time>
      </trkpt>
      <trkpt lat="46.37227" lon="4.86067">
        <ele>176.54</ele>
        <time>2012-09-07T08:07:45Z</time>
      </trkpt>
      <trkpt lat="46.37291" lon="4.86121">
        <ele>176.06</ele>
        <time>2012-09-07T08:07:59Z</time>
      </trkpt>
      <trkpt lat="46.37353" lon="4.86184">
        <ele>176.54</ele>
        <time>2012-09-07T08:08:16Z</time>
      </trkpt>
      <trkpt lat="46.37411" lon="4.86241">
        <ele>177.02</ele>
        <time>2012-09-07T08:08:34Z</time>
      </trkpt>
      <trkpt lat="46.37454" lon="4.86276">
        <ele>177.02</ele>
        <time>2012-09-07T08:08:47Z</time>
      </trkpt>
      <trkpt lat="46.37509" lon="4.86329">
        <ele>175.58</ele>
        <time>2012-09-07T08:09:02Z</time>
      </trkpt>
      <trkpt lat="46.37513" lon="4.86332">
        <ele>175.58</ele>
        <time>2012-09-07T08:09:03Z</time>
      </trkpt>
      <trkpt lat="46.37518" lon="4.86335">
        <ele>175.58</ele>
        <time>2012-09-07T08:09:04Z</time>
      </trkpt>
      <trkpt lat="46.37523" lon="4.86338">
        <ele>175.58</ele>
        <time>2012-09-07T08:09:05Z</time>
      </trkpt>
      <trkpt lat="46.3755" lon="4.86356">
        <ele>176.06</ele>
        <time>2012-09-07T08:09:11Z</time>
      </trkpt>
      <trkpt lat="46.3757" lon="4.86379">
        <ele>176.06</ele>
        <time>2012-09-07T08:09:17Z</time>
      </trkpt>
      <trkpt lat="46.37618" lon="4.86425">
        <ele>175.58</ele>
        <time>2012-09-07T08:09:30Z</time>
      </trkpt>
      <trkpt lat="46.37673" lon="4.86479">
        <ele>175.58</ele>
        <time>2012-09-07T08:09:46Z</time>
      </trkpt>
      <trkpt lat="46.37729" lon="4.86522">
        <ele>175.1</ele>
        <time>2012-09-07T08:10:02Z</time>
      </trkpt>
      <trkpt lat="46.37781" lon="4.86561">
        <ele>175.58</ele>
        <time>2012-09-07T08:10:17Z</time>
      </trkpt>
      <trkpt lat="46.37833" lon="4.86608">
        <ele>175.1</ele>
        <time>2012-09-07T08:10:32Z</time>
      </trkpt>
      <trkpt lat="46.37897" lon="4.86657">
        <ele>175.1</ele>
        <time>2012-09-07T08:10:48Z</time>
      </trkpt>
      <trkpt lat="46.37957" lon="4.86719">
        <ele>175.1</ele>
        <time>2012-09-07T08:11:05Z</time>
      </trkpt>
      <trkpt lat="46.37976" lon="4.86738">
        <ele>174.62</ele>
        <time>2012-09-07T08:11:10Z</time>
      </trkpt>
      <trkpt lat="46.3798" lon="4.86742">
        <ele>174.62</ele>
        <time>2012-09-07T08:11:11Z</time>
      </trkpt>
      <trkpt lat="46.38014" lon="4.86773">
        <ele>174.62</ele>
        <time>2012-09-07T08:11:20Z</time>
      </trkpt>
      <trkpt lat="46.38075" lon="4.86827">
        <ele>175.58</ele>
        <time>2012-09-07T08:11:37Z</time>
      </trkpt>
      <trkpt lat="46.38123" lon="4.86876">
        <ele>175.58</ele>
        <time>2012-09-07T08:11:52Z</time>
      </trkpt>
      <trkpt lat="46.3818" lon="4.86941">
        <ele>175.58</ele>
        <time>2012-09-07T08:12:09Z</time>
      </trkpt>
      <trkpt lat="46.38217" lon="4.86986">
        <ele>175.58</ele>
        <time>2012-09-07T08:12:22Z</time>
      </trkpt>
      <trkpt lat="46.38276" lon="4.87042">
        <ele>175.1</ele>
        <time>2012-09-07T08:12:38Z</time>
      </trkpt>
      <trkpt lat="46.38285" lon="4.8705">
        <ele>175.1</ele>
        <time>2012-09-07T08:12:47Z</time>
      </trkpt>
      <trkpt lat="46.38288" lon="4.87051">
        <ele>175.1</ele>
        <time>2012-09-07T08:13:09Z</time>
      </trkpt>
      <trkpt lat="46.38289" lon="4.87052">
        <ele>175.1</ele>
        <time>2012-09-07T08:13:10Z</time>
      </trkpt>
      <trkpt lat="46.38291" lon="4.87054">
        <ele>175.1</ele>
        <time>2012-09-07T08:13:11Z</time>
      </trkpt>
      <trkpt lat="46.38326" lon="4.87082">
        <ele>175.58</ele>
        <time>2012-09-07T08:13:26Z</time>
      </trkpt>
      <trkpt lat="46.38375" lon="4.87121">
        <ele>175.1</ele>
        <time>2012-09-07T08:13:40Z</time>
      </trkpt>
      <trkpt lat="46.38401" lon="4.8714">
        <ele>175.1</ele>
        <time>2012-09-07T08:13:47Z</time>
      </trkpt>
      <trkpt lat="46.38467" lon="4.8718">
        <ele>174.62</ele>
        <time>2012-09-07T08:14:02Z</time>
      </trkpt>
      <trkpt lat="46.3852" lon="4.87213">
        <ele>175.1</ele>
        <time>2012-09-07T08:14:17Z</time>
      </trkpt>
      <trkpt lat="46.38557" lon="4.87233">
        <ele>175.1</ele>
        <time>2012-09-07T08:14:30Z</time>
      </trkpt>
      <trkpt lat="46.38555" lon="4.87229">
        <ele>175.1</ele>
        <time>2012-09-07T08:14:33Z</time>
      </trkpt>
      <trkpt lat="46.38552" lon="4.87226">
        <ele>175.1</ele>
        <time>2012-09-07T08:14:35Z</time>
      </trkpt>
      <trkpt lat="46.38551" lon="4.87227">
        <ele>175.1</ele>
        <time>2012-09-07T08:14:36Z</time>
      </trkpt>
      <trkpt lat="46.3855" lon="4.87228">
        <ele>175.1</ele>
        <time>2012-09-07T08:14:37Z</time>
      </trkpt>
      <trkpt lat="46.3855" lon="4.8723">
        <ele>175.1</ele>
        <time>2012-09-07T08:14:38Z</time>
      </trkpt>
      <trkpt lat="46.38552" lon="4.87232">
        <ele>175.1</ele>
        <time>2012-09-07T08:14:52Z</time>
      </trkpt>
      <trkpt lat="46.38554" lon="4.87233">
        <ele>175.1</ele>
        <time>2012-09-07T08:15:15Z</time>
      </trkpt>
      <trkpt lat="46.3856" lon="4.87237">
        <ele>175.1</ele>
        <time>2012-09-07T08:15:22Z</time>
      </trkpt>
      <trkpt lat="46.38561" lon="4.87237">
        <ele>175.1</ele>
        <time>2012-09-07T08:15:23Z</time>
      </trkpt>
      <trkpt lat="46.38565" lon="4.8724">
        <ele>175.1</ele>
        <time>2012-09-07T08:15:26Z</time>
      </trkpt>
      <trkpt lat="46.38598" lon="4.87268">
        <ele>174.62</ele>
        <time>2012-09-07T08:15:39Z</time>
      </trkpt>
      <trkpt lat="46.38666" lon="4.873">
        <ele>175.1</ele>
        <time>2012-09-07T08:15:57Z</time>
      </trkpt>
      <trkpt lat="46.38713" lon="4.87322">
        <ele>176.06</ele>
        <time>2012-09-07T08:16:12Z</time>
      </trkpt>
      <trkpt lat="46.38769" lon="4.87349">
        <ele>176.54</ele>
        <time>2012-09-07T08:16:28Z</time>
      </trkpt>
      <trkpt lat="46.38821" lon="4.8739">
        <ele>176.54</ele>
        <time>2012-09-07T08:16:43Z</time>
      </trkpt>
      <trkpt lat="46.38868" lon="4.87419">
        <ele>176.54</ele>
        <time>2012-09-07T08:16:58Z</time>
      </trkpt>
      <trkpt lat="46.38899" lon="4.87449">
        <ele>176.54</ele>
        <time>2012-09-07T08:17:08Z</time>
      </trkpt>
      <trkpt lat="46.38967" lon="4.87508">
        <ele>175.58</ele>
        <time>2012-09-07T08:17:24Z</time>
      </trkpt>
      <trkpt lat="46.38971" lon="4.87511">
        <ele>175.58</ele>
        <time>2012-09-07T08:17:25Z</time>
      </trkpt>
      <trkpt lat="46.38991" lon="4.87526">
        <ele>175.58</ele>
        <time>2012-09-07T08:17:30Z</time>
      </trkpt>
      <trkpt lat="46.38995" lon="4.87529">
        <ele>175.58</ele>
        <time>2012-09-07T08:17:31Z</time>
      </trkpt>
      <trkpt lat="46.3901" lon="4.87542">
        <ele>175.58</ele>
        <time>2012-09-07T08:17:35Z</time>
      </trkpt>
      <trkpt lat="46.39051" lon="4.87579">
        <ele>175.1</ele>
        <time>2012-09-07T08:17:47Z</time>
      </trkpt>
      <trkpt lat="46.39055" lon="4.87582">
        <ele>175.1</ele>
        <time>2012-09-07T08:17:48Z</time>
      </trkpt>
      <trkpt lat="46.39059" lon="4.87586">
        <ele>175.1</ele>
        <time>2012-09-07T08:17:49Z</time>
      </trkpt>
      <trkpt lat="46.39062" lon="4.87589">
        <ele>175.1</ele>
        <time>2012-09-07T08:17:50Z</time>
      </trkpt>
      <trkpt lat="46.39065" lon="4.87593">
        <ele>175.1</ele>
        <time>2012-09-07T08:17:51Z</time>
      </trkpt>
      <trkpt lat="46.39132" lon="4.87663">
        <ele>175.1</ele>
        <time>2012-09-07T08:18:09Z</time>
      </trkpt>
      <trkpt lat="46.39159" lon="4.87687">
        <ele>174.62</ele>
        <time>2012-09-07T08:18:16Z</time>
      </trkpt>
      <trkpt lat="46.39162" lon="4.87691">
        <ele>175.1</ele>
        <time>2012-09-07T08:18:17Z</time>
      </trkpt>
      <trkpt lat="46.39214" lon="4.87762">
        <ele>174.62</ele>
        <time>2012-09-07T08:18:33Z</time>
      </trkpt>
      <trkpt lat="46.39218" lon="4.87765">
        <ele>174.62</ele>
        <time>2012-09-07T08:18:34Z</time>
      </trkpt>
      <trkpt lat="46.39249" lon="4.87786">
        <ele>175.1</ele>
        <time>2012-09-07T08:18:42Z</time>
      </trkpt>
      <trkpt lat="46.39253" lon="4.87789">
        <ele>175.1</ele>
        <time>2012-09-07T08:18:43Z</time>
      </trkpt>
      <trkpt lat="46.39316" lon="4.87851">
        <ele>175.1</ele>
        <time>2012-09-07T08:19:00Z</time>
      </trkpt>
      <trkpt lat="46.39347" lon="4.87878">
        <ele>175.1</ele>
        <time>2012-09-07T08:19:08Z</time>
      </trkpt>
      <trkpt lat="46.39409" lon="4.87932">
        <ele>175.1</ele>
        <time>2012-09-07T08:19:24Z</time>
      </trkpt>
      <trkpt lat="46.39494" lon="4.87985">
        <ele>175.1</ele>
        <time>2012-09-07T08:19:45Z</time>
      </trkpt>
      <trkpt lat="46.39571" lon="4.88023">
        <ele>175.58</ele>
        <time>2012-09-07T08:20:03Z</time>
      </trkpt>
      <trkpt lat="46.39656" lon="4.88069">
        <ele>175.58</ele>
        <time>2012-09-07T08:20:23Z</time>
      </trkpt>
      <trkpt lat="46.39741" lon="4.88122">
        <ele>175.58</ele>
        <time>2012-09-07T08:20:43Z</time>
      </trkpt>
      <trkpt lat="46.39811" lon="4.88167">
        <ele>175.58</ele>
        <time>2012-09-07T08:21:00Z</time>
      </trkpt>
      <trkpt lat="46.39819" lon="4.88171">
        <ele>175.58</ele>
        <time>2012-09-07T08:21:02Z</time>
      </trkpt>
      <trkpt lat="46.39844" lon="4.88191">
        <ele>175.58</ele>
        <time>2012-09-07T08:21:09Z</time>
      </trkpt>
      <trkpt lat="46.39847" lon="4.88195">
        <ele>175.58</ele>
        <time>2012-09-07T08:21:10Z</time>
      </trkpt>
      <trkpt lat="46.3985" lon="4.88198">
        <ele>175.58</ele>
        <time>2012-09-07T08:21:11Z</time>
      </trkpt>
      <trkpt lat="46.39909" lon="4.8825">
        <ele>175.58</ele>
        <time>2012-09-07T08:21:27Z</time>
      </trkpt>
      <trkpt lat="46.39976" lon="4.88313">
        <ele>175.58</ele>
        <time>2012-09-07T08:21:45Z</time>
      </trkpt>
      <trkpt lat="46.40042" lon="4.88376">
        <ele>175.58</ele>
        <time>2012-09-07T08:22:03Z</time>
      </trkpt>
      <trkpt lat="46.40126" lon="4.88432">
        <ele>175.58</ele>
        <time>2012-09-07T08:22:24Z</time>
      </trkpt>
      <trkpt lat="46.40166" lon="4.88463">
        <ele>175.58</ele>
        <time>2012-09-07T08:22:34Z</time>
      </trkpt>
      <trkpt lat="46.4023" lon="4.88525">
        <ele>175.58</ele>
        <time>2012-09-07T08:22:52Z</time>
      </trkpt>
      <trkpt lat="46.40295" lon="4.88571">
        <ele>175.58</ele>
        <time>2012-09-07T08:23:09Z</time>
      </trkpt>
      <trkpt lat="46.40367" lon="4.88625">
        <ele>175.1</ele>
        <time>2012-09-07T08:23:27Z</time>
      </trkpt>
      <trkpt lat="46.40407" lon="4.88664">
        <ele>175.1</ele>
        <time>2012-09-07T08:23:38Z</time>
      </trkpt>
      <trkpt lat="46.40473" lon="4.88709">
        <ele>175.1</ele>
        <time>2012-09-07T08:23:55Z</time>
      </trkpt>
      <trkpt lat="46.40548" lon="4.88728">
        <ele>175.58</ele>
        <time>2012-09-07T08:24:14Z</time>
      </trkpt>
      <trkpt lat="46.40598" lon="4.88735">
        <ele>175.1</ele>
        <time>2012-09-07T08:24:28Z</time>
      </trkpt>
      <trkpt lat="46.40609" lon="4.88736">
        <ele>175.1</ele>
        <time>2012-09-07T08:24:36Z</time>
      </trkpt>
      <trkpt lat="46.4061" lon="4.88736">
        <ele>175.1</ele>
        <time>2012-09-07T08:25:04Z</time>
      </trkpt>
      <trkpt lat="46.40611" lon="4.88735">
        <ele>175.1</ele>
        <time>2012-09-07T08:25:31Z</time>
      </trkpt>
      <trkpt lat="46.40613" lon="4.88735">
        <ele>175.1</ele>
        <time>2012-09-07T08:25:32Z</time>
      </trkpt>
      <trkpt lat="46.40614" lon="4.88734">
        <ele>175.1</ele>
        <time>2012-09-07T08:25:33Z</time>
      </trkpt>
      <trkpt lat="46.40615" lon="4.88734">
        <ele>175.1</ele>
        <time>2012-09-07T08:25:34Z</time>
      </trkpt>
      <trkpt lat="46.40617" lon="4.88734">
        <ele>175.1</ele>
        <time>2012-09-07T08:25:35Z</time>
      </trkpt>
      <trkpt lat="46.40618" lon="4.88734">
        <ele>175.1</ele>
        <time>2012-09-07T08:25:36Z</time>
      </trkpt>
      <trkpt lat="46.4062" lon="4.88735">
        <ele>175.1</ele>
        <time>2012-09-07T08:25:37Z</time>
      </trkpt>
      <trkpt lat="46.40623" lon="4.88735">
        <ele>175.1</ele>
        <time>2012-09-07T08:25:38Z</time>
      </trkpt>
      <trkpt lat="46.40675" lon="4.88719">
        <ele>175.1</ele>
        <time>2012-09-07T08:25:54Z</time>
      </trkpt>
      <trkpt lat="46.40719" lon="4.887">
        <ele>175.58</ele>
        <time>2012-09-07T08:26:06Z</time>
      </trkpt>
      <trkpt lat="46.40799" lon="4.88684">
        <ele>175.1</ele>
        <time>2012-09-07T08:26:23Z</time>
      </trkpt>
      <trkpt lat="46.40885" lon="4.8866">
        <ele>175.1</ele>
        <time>2012-09-07T08:26:42Z</time>
      </trkpt>
      <trkpt lat="46.40909" lon="4.88649">
        <ele>175.1</ele>
        <time>2012-09-07T08:26:47Z</time>
      </trkpt>
      <trkpt lat="46.40961" lon="4.88593">
        <ele>176.06</ele>
        <time>2012-09-07T08:27:02Z</time>
      </trkpt>
      <trkpt lat="46.40994" lon="4.88563">
        <ele>176.54</ele>
        <time>2012-09-07T08:27:12Z</time>
      </trkpt>
      <trkpt lat="46.40998" lon="4.88562">
        <ele>176.54</ele>
        <time>2012-09-07T08:27:13Z</time>
      </trkpt>
      <trkpt lat="46.41003" lon="4.88563">
        <ele>176.06</ele>
        <time>2012-09-07T08:27:14Z</time>
      </trkpt>
      <trkpt lat="46.41007" lon="4.88565">
        <ele>176.06</ele>
        <time>2012-09-07T08:27:15Z</time>
      </trkpt>
      <trkpt lat="46.41011" lon="4.88567">
        <ele>175.58</ele>
        <time>2012-09-07T08:27:16Z</time>
      </trkpt>
      <trkpt lat="46.41015" lon="4.8857">
        <ele>175.58</ele>
        <time>2012-09-07T08:27:17Z</time>
      </trkpt>
      <trkpt lat="46.41048" lon="4.88584">
        <ele>175.58</ele>
        <time>2012-09-07T08:27:29Z</time>
      </trkpt>
      <trkpt lat="46.4105" lon="4.88583">
        <ele>175.1</ele>
        <time>2012-09-07T08:27:42Z</time>
      </trkpt>
      <trkpt lat="46.4105" lon="4.88583">
        <ele>175.1</ele>
        <time>2012-09-07T08:28:23Z</time>
      </trkpt>
      <trkpt lat="46.4105" lon="4.88583">
        <ele>175.58</ele>
        <time>2012-09-07T08:28:59Z</time>
      </trkpt>
      <trkpt lat="46.41052" lon="4.88586">
        <ele>175.1</ele>
        <time>2012-09-07T08:29:14Z</time>
      </trkpt>
      <trkpt lat="46.41052" lon="4.88585">
        <ele>175.58</ele>
        <time>2012-09-07T08:29:40Z</time>
      </trkpt>
      <trkpt lat="46.41052" lon="4.88586">
        <ele>175.58</ele>
        <time>2012-09-07T08:30:00Z</time>
      </trkpt>
      <trkpt lat="46.41052" lon="4.88586">
        <ele>175.58</ele>
        <time>2012-09-07T08:30:16Z</time>
      </trkpt>
      <trkpt lat="46.41056" lon="4.88583">
        <ele>175.58</ele>
        <time>2012-09-07T08:30:34Z</time>
      </trkpt>
      <trkpt lat="46.41057" lon="4.88584">
        <ele>175.58</ele>
        <time>2012-09-07T08:30:35Z</time>
      </trkpt>
      <trkpt lat="46.41059" lon="4.88584">
        <ele>175.58</ele>
        <time>2012-09-07T08:30:36Z</time>
      </trkpt>
      <trkpt lat="46.4106" lon="4.88584">
        <ele>175.58</ele>
        <time>2012-09-07T08:30:37Z</time>
      </trkpt>
      <trkpt lat="46.41062" lon="4.88584">
        <ele>175.58</ele>
        <time>2012-09-07T08:30:38Z</time>
      </trkpt>
      <trkpt lat="46.41093" lon="4.88579">
        <ele>175.58</ele>
        <time>2012-09-07T08:30:50Z</time>
      </trkpt>
      <trkpt lat="46.41139" lon="4.88574">
        <ele>175.58</ele>
        <time>2012-09-07T08:31:03Z</time>
      </trkpt>
      <trkpt lat="46.41204" lon="4.88569">
        <ele>175.58</ele>
        <time>2012-09-07T08:31:19Z</time>
      </trkpt>
      <trkpt lat="46.41274" lon="4.88576">
        <ele>175.58</ele>
        <time>2012-09-07T08:31:36Z</time>
      </trkpt>
      <trkpt lat="46.41347" lon="4.88583">
        <ele>175.58</ele>
        <time>2012-09-07T08:31:54Z</time>
      </trkpt>
      <trkpt lat="46.41419" lon="4.8859">
        <ele>175.58</ele>
        <time>2012-09-07T08:32:11Z</time>
      </trkpt>
      <trkpt lat="46.41493" lon="4.88609">
        <ele>176.06</ele>
        <time>2012-09-07T08:32:29Z</time>
      </trkpt>
      <trkpt lat="46.41572" lon="4.88634">
        <ele>176.06</ele>
        <time>2012-09-07T08:32:48Z</time>
      </trkpt>
      <trkpt lat="46.41631" lon="4.88654">
        <ele>176.06</ele>
        <time>2012-09-07T08:33:03Z</time>
      </trkpt>
      <trkpt lat="46.41676" lon="4.88667">
        <ele>175.58</ele>
        <time>2012-09-07T08:33:16Z</time>
      </trkpt>
      <trkpt lat="46.41736" lon="4.88672">
        <ele>176.06</ele>
        <time>2012-09-07T08:33:31Z</time>
      </trkpt>
      <trkpt lat="46.41744" lon="4.88671">
        <ele>176.06</ele>
        <time>2012-09-07T08:33:34Z</time>
      </trkpt>
      <trkpt lat="46.41745" lon="4.88672">
        <ele>176.06</ele>
        <time>2012-09-07T08:33:35Z</time>
      </trkpt>
      <trkpt lat="46.41749" lon="4.88669">
        <ele>176.06</ele>
        <time>2012-09-07T08:33:48Z</time>
      </trkpt>
      <trkpt lat="46.41749" lon="4.88668">
        <ele>176.06</ele>
        <time>2012-09-07T08:34:02Z</time>
      </trkpt>
      <trkpt lat="46.41749" lon="4.88667">
        <ele>176.06</ele>
        <time>2012-09-07T08:34:34Z</time>
      </trkpt>
      <trkpt lat="46.41749" lon="4.88667">
        <ele>176.06</ele>
        <time>2012-09-07T08:35:02Z</time>
      </trkpt>
      <trkpt lat="46.4175" lon="4.88669">
        <ele>176.06</ele>
        <time>2012-09-07T08:35:32Z</time>
      </trkpt>
      <trkpt lat="46.41771" lon="4.88688">
        <ele>175.58</ele>
        <time>2012-09-07T08:35:42Z</time>
      </trkpt>
      <trkpt lat="46.41827" lon="4.88707">
        <ele>175.58</ele>
        <time>2012-09-07T08:35:57Z</time>
      </trkpt>
      <trkpt lat="46.41891" lon="4.88714">
        <ele>176.06</ele>
        <time>2012-09-07T08:36:12Z</time>
      </trkpt>
      <trkpt lat="46.41948" lon="4.88722">
        <ele>176.06</ele>
        <time>2012-09-07T08:36:25Z</time>
      </trkpt>
      <trkpt lat="46.41957" lon="4.88723">
        <ele>175.58</ele>
        <time>2012-09-07T08:36:27Z</time>
      </trkpt>
      <trkpt lat="46.42032" lon="4.88737">
        <ele>176.06</ele>
        <time>2012-09-07T08:36:43Z</time>
      </trkpt>
      <trkpt lat="46.42108" lon="4.88755">
        <ele>176.06</ele>
        <time>2012-09-07T08:37:00Z</time>
      </trkpt>
      <trkpt lat="46.42192" lon="4.88773">
        <ele>175.58</ele>
        <time>2012-09-07T08:37:19Z</time>
      </trkpt>
      <trkpt lat="46.42257" lon="4.88785">
        <ele>175.58</ele>
        <time>2012-09-07T08:37:34Z</time>
      </trkpt>
      <trkpt lat="46.42333" lon="4.88799">
        <ele>176.06</ele>
        <time>2012-09-07T08:37:51Z</time>
      </trkpt>
      <trkpt lat="46.4239" lon="4.88809">
        <ele>175.58</ele>
        <time>2012-09-07T08:38:06Z</time>
      </trkpt>
      <trkpt lat="46.4239" lon="4.8881">
        <ele>175.58</ele>
        <time>2012-09-07T08:38:25Z</time>
      </trkpt>
      <trkpt lat="46.42408" lon="4.88814">
        <ele>175.58</ele>
        <time>2012-09-07T08:38:41Z</time>
      </trkpt>
      <trkpt lat="46.42465" lon="4.88824">
        <ele>176.06</ele>
        <time>2012-09-07T08:38:55Z</time>
      </trkpt>
      <trkpt lat="46.42522" lon="4.8883">
        <ele>176.06</ele>
        <time>2012-09-07T08:39:07Z</time>
      </trkpt>
      <trkpt lat="46.42599" lon="4.88835">
        <ele>175.58</ele>
        <time>2012-09-07T08:39:23Z</time>
      </trkpt>
      <trkpt lat="46.42644" lon="4.88838">
        <ele>175.58</ele>
        <time>2012-09-07T08:39:36Z</time>
      </trkpt>
      <trkpt lat="46.42688" lon="4.88841">
        <ele>175.58</ele>
        <time>2012-09-07T08:39:49Z</time>
      </trkpt>
      <trkpt lat="46.4272" lon="4.88842">
        <ele>175.58</ele>
        <time>2012-09-07T08:40:00Z</time>
      </trkpt>
      <trkpt lat="46.42765" lon="4.88844">
        <ele>175.58</ele>
        <time>2012-09-07T08:40:12Z</time>
      </trkpt>
      <trkpt lat="46.42834" lon="4.8885">
        <ele>175.58</ele>
        <time>2012-09-07T08:40:28Z</time>
      </trkpt>
      <trkpt lat="46.42839" lon="4.88849">
        <ele>175.58</ele>
        <time>2012-09-07T08:40:29Z</time>
      </trkpt>
      <trkpt lat="46.42844" lon="4.88849">
        <ele>175.58</ele>
        <time>2012-09-07T08:40:30Z</time>
      </trkpt>
      <trkpt lat="46.42919" lon="4.8883">
        <ele>176.06</ele>
        <time>2012-09-07T08:40:47Z</time>
      </trkpt>
      <trkpt lat="46.42963" lon="4.8882">
        <ele>176.54</ele>
        <time>2012-09-07T08:40:59Z</time>
      </trkpt>
      <trkpt lat="46.42974" lon="4.88819">
        <ele>176.54</ele>
        <time>2012-09-07T08:41:04Z</time>
      </trkpt>
      <trkpt lat="46.42975" lon="4.88818">
        <ele>176.54</ele>
        <time>2012-09-07T08:41:05Z</time>
      </trkpt>
      <trkpt lat="46.42977" lon="4.88817">
        <ele>176.54</ele>
        <time>2012-09-07T08:41:06Z</time>
      </trkpt>
      <trkpt lat="46.42978" lon="4.88817">
        <ele>176.54</ele>
        <time>2012-09-07T08:41:07Z</time>
      </trkpt>
      <trkpt lat="46.4298" lon="4.88817">
        <ele>176.54</ele>
        <time>2012-09-07T08:41:08Z</time>
      </trkpt>
      <trkpt lat="46.43006" lon="4.88799">
        <ele>176.06</ele>
        <time>2012-09-07T08:41:21Z</time>
      </trkpt>
      <trkpt lat="46.4304" lon="4.88776">
        <ele>176.54</ele>
        <time>2012-09-07T08:41:33Z</time>
      </trkpt>
      <trkpt lat="46.4309" lon="4.88748">
        <ele>176.54</ele>
        <time>2012-09-07T08:41:47Z</time>
      </trkpt>
      <trkpt lat="46.43134" lon="4.88735">
        <ele>176.54</ele>
        <time>2012-09-07T08:41:59Z</time>
      </trkpt>
      <trkpt lat="46.43197" lon="4.88726">
        <ele>176.06</ele>
        <time>2012-09-07T08:42:14Z</time>
      </trkpt>
      <trkpt lat="46.43275" lon="4.88732">
        <ele>176.06</ele>
        <time>2012-09-07T08:42:30Z</time>
      </trkpt>
      <trkpt lat="46.43333" lon="4.88743">
        <ele>175.58</ele>
        <time>2012-09-07T08:42:42Z</time>
      </trkpt>
      <trkpt lat="46.43411" lon="4.88758">
        <ele>175.58</ele>
        <time>2012-09-07T08:42:58Z</time>
      </trkpt>
      <trkpt lat="46.43426" lon="4.88758">
        <ele>175.58</ele>
        <time>2012-09-07T08:43:01Z</time>
      </trkpt>
      <trkpt lat="46.43431" lon="4.88757">
        <ele>175.58</ele>
        <time>2012-09-07T08:43:02Z</time>
      </trkpt>
      <trkpt lat="46.43435" lon="4.88755">
        <ele>175.58</ele>
        <time>2012-09-07T08:43:03Z</time>
      </trkpt>
      <trkpt lat="46.43459" lon="4.88759">
        <ele>175.58</ele>
        <time>2012-09-07T08:43:11Z</time>
      </trkpt>
      <trkpt lat="46.43463" lon="4.88761">
        <ele>175.58</ele>
        <time>2012-09-07T08:43:16Z</time>
      </trkpt>
      <trkpt lat="46.43464" lon="4.88757">
        <ele>175.58</ele>
        <time>2012-09-07T08:43:19Z</time>
      </trkpt>
      <trkpt lat="46.43464" lon="4.88756">
        <ele>175.58</ele>
        <time>2012-09-07T08:43:20Z</time>
      </trkpt>
      <trkpt lat="46.43465" lon="4.88754">
        <ele>176.06</ele>
        <time>2012-09-07T08:43:21Z</time>
      </trkpt>
      <trkpt lat="46.43465" lon="4.88752">
        <ele>176.06</ele>
        <time>2012-09-07T08:43:22Z</time>
      </trkpt>
      <trkpt lat="46.43465" lon="4.88751">
        <ele>176.06</ele>
        <time>2012-09-07T08:43:23Z</time>
      </trkpt>
      <trkpt lat="46.43466" lon="4.88749">
        <ele>175.58</ele>
        <time>2012-09-07T08:43:24Z</time>
      </trkpt>
      <trkpt lat="46.43467" lon="4.88748">
        <ele>176.06</ele>
        <time>2012-09-07T08:43:25Z</time>
      </trkpt>
      <trkpt lat="46.43468" lon="4.88746">
        <ele>176.06</ele>
        <time>2012-09-07T08:43:26Z</time>
      </trkpt>
      <trkpt lat="46.43469" lon="4.88744">
        <ele>176.06</ele>
        <time>2012-09-07T08:43:27Z</time>
      </trkpt>
      <trkpt lat="46.43469" lon="4.88741">
        <ele>176.06</ele>
        <time>2012-09-07T08:43:28Z</time>
      </trkpt>
      <trkpt lat="46.4347" lon="4.88739">
        <ele>176.06</ele>
        <time>2012-09-07T08:43:29Z</time>
      </trkpt>
      <trkpt lat="46.4347" lon="4.88737">
        <ele>176.06</ele>
        <time>2012-09-07T08:43:30Z</time>
      </trkpt>
      <trkpt lat="46.43471" lon="4.88734">
        <ele>176.06</ele>
        <time>2012-09-07T08:43:31Z</time>
      </trkpt>
      <trkpt lat="46.43472" lon="4.88732">
        <ele>176.06</ele>
        <time>2012-09-07T08:43:32Z</time>
      </trkpt>
      <trkpt lat="46.43473" lon="4.88728">
        <ele>176.06</ele>
        <time>2012-09-07T08:43:33Z</time>
      </trkpt>
      <trkpt lat="46.43474" lon="4.88725">
        <ele>176.06</ele>
        <time>2012-09-07T08:43:34Z</time>
      </trkpt>
      <trkpt lat="46.43483" lon="4.88696">
        <ele>176.06</ele>
        <time>2012-09-07T08:43:43Z</time>
      </trkpt>
      <trkpt lat="46.43504" lon="4.88646">
        <ele>176.06</ele>
        <time>2012-09-07T08:43:55Z</time>
      </trkpt>
      <trkpt lat="46.43532" lon="4.88575">
        <ele>176.06</ele>
        <time>2012-09-07T08:44:09Z</time>
      </trkpt>
      <trkpt lat="46.43536" lon="4.88566">
        <ele>176.06</ele>
        <time>2012-09-07T08:44:17Z</time>
      </trkpt>
      <trkpt lat="46.43536" lon="4.88566">
        <ele>176.06</ele>
        <time>2012-09-07T08:44:41Z</time>
      </trkpt>
      <trkpt lat="46.43539" lon="4.88561">
        <ele>175.58</ele>
        <time>2012-09-07T08:45:08Z</time>
      </trkpt>
      <trkpt lat="46.43556" lon="4.88519">
        <ele>176.06</ele>
        <time>2012-09-07T08:45:22Z</time>
      </trkpt>
      <trkpt lat="46.43584" lon="4.88447">
        <ele>176.06</ele>
        <time>2012-09-07T08:45:37Z</time>
      </trkpt>
      <trkpt lat="46.43601" lon="4.88412">
        <ele>176.06</ele>
        <time>2012-09-07T08:45:44Z</time>
      </trkpt>
      <trkpt lat="46.43604" lon="4.88409">
        <ele>176.54</ele>
        <time>2012-09-07T08:45:45Z</time>
      </trkpt>
      <trkpt lat="46.43608" lon="4.88406">
        <ele>176.54</ele>
        <time>2012-09-07T08:45:46Z</time>
      </trkpt>
      <trkpt lat="46.43611" lon="4.88404">
        <ele>176.54</ele>
        <time>2012-09-07T08:45:47Z</time>
      </trkpt>
      <trkpt lat="46.43616" lon="4.88404">
        <ele>176.06</ele>
        <time>2012-09-07T08:45:48Z</time>
      </trkpt>
      <trkpt lat="46.4362" lon="4.88405">
        <ele>176.06</ele>
        <time>2012-09-07T08:45:49Z</time>
      </trkpt>
      <trkpt lat="46.43624" lon="4.88406">
        <ele>176.06</ele>
        <time>2012-09-07T08:45:50Z</time>
      </trkpt>
      <trkpt lat="46.43689" lon="4.8843">
        <ele>176.06</ele>
        <time>2012-09-07T08:46:06Z</time>
      </trkpt>
      <trkpt lat="46.43746" lon="4.88452">
        <ele>176.06</ele>
        <time>2012-09-07T08:46:23Z</time>
      </trkpt>
      <trkpt lat="46.43768" lon="4.88458">
        <ele>176.06</ele>
        <time>2012-09-07T08:46:31Z</time>
      </trkpt>
      <trkpt lat="46.43772" lon="4.88459">
        <ele>176.54</ele>
        <time>2012-09-07T08:46:32Z</time>
      </trkpt>
      <trkpt lat="46.43776" lon="4.88461">
        <ele>176.54</ele>
        <time>2012-09-07T08:46:33Z</time>
      </trkpt>
      <trkpt lat="46.43781" lon="4.88463">
        <ele>176.54</ele>
        <time>2012-09-07T08:46:34Z</time>
      </trkpt>
      <trkpt lat="46.43785" lon="4.88465">
        <ele>176.54</ele>
        <time>2012-09-07T08:46:35Z</time>
      </trkpt>
      <trkpt lat="46.43816" lon="4.88476">
        <ele>176.54</ele>
        <time>2012-09-07T08:46:43Z</time>
      </trkpt>
      <trkpt lat="46.4382" lon="4.88477">
        <ele>176.54</ele>
        <time>2012-09-07T08:46:44Z</time>
      </trkpt>
      <trkpt lat="46.43871" lon="4.88492">
        <ele>176.06</ele>
        <time>2012-09-07T08:46:57Z</time>
      </trkpt>
      <trkpt lat="46.43875" lon="4.88489">
        <ele>175.58</ele>
        <time>2012-09-07T08:46:58Z</time>
      </trkpt>
      <trkpt lat="46.43879" lon="4.88485">
        <ele>175.58</ele>
        <time>2012-09-07T08:46:59Z</time>
      </trkpt>
      <trkpt lat="46.43881" lon="4.88479">
        <ele>175.58</ele>
        <time>2012-09-07T08:47:00Z</time>
      </trkpt>
      <trkpt lat="46.43883" lon="4.88474">
        <ele>175.58</ele>
        <time>2012-09-07T08:47:01Z</time>
      </trkpt>
      <trkpt lat="46.43885" lon="4.88468">
        <ele>175.58</ele>
        <time>2012-09-07T08:47:02Z</time>
      </trkpt>
      <trkpt lat="46.43886" lon="4.88462">
        <ele>175.58</ele>
        <time>2012-09-07T08:47:03Z</time>
      </trkpt>
      <trkpt lat="46.43897" lon="4.8838">
        <ele>176.06</ele>
        <time>2012-09-07T08:47:17Z</time>
      </trkpt>
      <trkpt lat="46.43903" lon="4.88325">
        <ele>176.54</ele>
        <time>2012-09-07T08:47:26Z</time>
      </trkpt>
      <trkpt lat="46.43905" lon="4.88322">
        <ele>176.54</ele>
        <time>2012-09-07T08:47:27Z</time>
      </trkpt>
      <trkpt lat="46.43908" lon="4.8832">
        <ele>176.54</ele>
        <time>2012-09-07T08:47:28Z</time>
      </trkpt>
      <trkpt lat="46.43911" lon="4.88318">
        <ele>176.54</ele>
        <time>2012-09-07T08:47:29Z</time>
      </trkpt>
      <trkpt lat="46.43914" lon="4.88318">
        <ele>177.02</ele>
        <time>2012-09-07T08:47:30Z</time>
      </trkpt>
      <trkpt lat="46.43916" lon="4.88318">
        <ele>177.02</ele>
        <time>2012-09-07T08:47:31Z</time>
      </trkpt>
      <trkpt lat="46.43919" lon="4.88317">
        <ele>177.5</ele>
        <time>2012-09-07T08:47:32Z</time>
      </trkpt>
      <trkpt lat="46.43956" lon="4.88332">
        <ele>177.5</ele>
        <time>2012-09-07T08:47:43Z</time>
      </trkpt>
      <trkpt lat="46.44006" lon="4.88354">
        <ele>177.02</ele>
        <time>2012-09-07T08:47:55Z</time>
      </trkpt>
      <trkpt lat="46.44056" lon="4.88381">
        <ele>177.02</ele>
        <time>2012-09-07T08:48:07Z</time>
      </trkpt>
      <trkpt lat="46.4406" lon="4.88383">
        <ele>177.02</ele>
        <time>2012-09-07T08:48:08Z</time>
      </trkpt>
      <trkpt lat="46.44132" lon="4.88419">
        <ele>177.5</ele>
        <time>2012-09-07T08:48:26Z</time>
      </trkpt>
      <trkpt lat="46.44204" lon="4.88453">
        <ele>177.5</ele>
        <time>2012-09-07T08:48:44Z</time>
      </trkpt>
      <trkpt lat="46.44212" lon="4.88456">
        <ele>177.5</ele>
        <time>2012-09-07T08:48:46Z</time>
      </trkpt>
      <trkpt lat="46.44216" lon="4.88458">
        <ele>177.02</ele>
        <time>2012-09-07T08:48:47Z</time>
      </trkpt>
      <trkpt lat="46.44281" lon="4.88492">
        <ele>177.02</ele>
        <time>2012-09-07T08:49:02Z</time>
      </trkpt>
      <trkpt lat="46.44284" lon="4.88496">
        <ele>177.02</ele>
        <time>2012-09-07T08:49:03Z</time>
      </trkpt>
      <trkpt lat="46.44287" lon="4.88501">
        <ele>177.02</ele>
        <time>2012-09-07T08:49:04Z</time>
      </trkpt>
      <trkpt lat="46.4429" lon="4.88505">
        <ele>177.02</ele>
        <time>2012-09-07T08:49:05Z</time>
      </trkpt>
      <trkpt lat="46.44294" lon="4.88508">
        <ele>177.02</ele>
        <time>2012-09-07T08:49:06Z</time>
      </trkpt>
      <trkpt lat="46.44297" lon="4.8851">
        <ele>177.02</ele>
        <time>2012-09-07T08:49:07Z</time>
      </trkpt>
      <trkpt lat="46.44301" lon="4.88511">
        <ele>177.02</ele>
        <time>2012-09-07T08:49:08Z</time>
      </trkpt>
      <trkpt lat="46.44305" lon="4.88512">
        <ele>177.02</ele>
        <time>2012-09-07T08:49:09Z</time>
      </trkpt>
      <trkpt lat="46.44307" lon="4.88514">
        <ele>177.02</ele>
        <time>2012-09-07T08:49:10Z</time>
      </trkpt>
      <trkpt lat="46.4431" lon="4.88516">
        <ele>176.54</ele>
        <time>2012-09-07T08:49:11Z</time>
      </trkpt>
      <trkpt lat="46.44311" lon="4.8852">
        <ele>177.02</ele>
        <time>2012-09-07T08:49:12Z</time>
      </trkpt>
      <trkpt lat="46.44312" lon="4.88524">
        <ele>176.54</ele>
        <time>2012-09-07T08:49:13Z</time>
      </trkpt>
      <trkpt lat="46.44311" lon="4.88528">
        <ele>176.54</ele>
        <time>2012-09-07T08:49:14Z</time>
      </trkpt>
      <trkpt lat="46.44311" lon="4.88533">
        <ele>176.54</ele>
        <time>2012-09-07T08:49:15Z</time>
      </trkpt>
      <trkpt lat="46.44309" lon="4.88538">
        <ele>176.54</ele>
        <time>2012-09-07T08:49:16Z</time>
      </trkpt>
      <trkpt lat="46.44294" lon="4.88593">
        <ele>176.54</ele>
        <time>2012-09-07T08:49:27Z</time>
      </trkpt>
      <trkpt lat="46.44272" lon="4.88677">
        <ele>177.02</ele>
        <time>2012-09-07T08:49:42Z</time>
      </trkpt>
      <trkpt lat="46.4425" lon="4.88764">
        <ele>176.54</ele>
        <time>2012-09-07T08:49:57Z</time>
      </trkpt>
      <trkpt lat="46.44246" lon="4.8878">
        <ele>176.54</ele>
        <time>2012-09-07T08:50:00Z</time>
      </trkpt>
      <trkpt lat="46.44242" lon="4.88798">
        <ele>176.54</ele>
        <time>2012-09-07T08:50:03Z</time>
      </trkpt>
      <trkpt lat="46.4424" lon="4.88803">
        <ele>176.54</ele>
        <time>2012-09-07T08:50:04Z</time>
      </trkpt>
      <trkpt lat="46.44212" lon="4.88915">
        <ele>176.54</ele>
        <time>2012-09-07T08:50:23Z</time>
      </trkpt>
      <trkpt lat="46.44199" lon="4.88967">
        <ele>176.06</ele>
        <time>2012-09-07T08:50:32Z</time>
      </trkpt>
      <trkpt lat="46.44195" lon="4.88984">
        <ele>176.06</ele>
        <time>2012-09-07T08:50:35Z</time>
      </trkpt>
      <trkpt lat="46.44193" lon="4.88989">
        <ele>176.06</ele>
        <time>2012-09-07T08:50:36Z</time>
      </trkpt>
      <trkpt lat="46.44192" lon="4.88995">
        <ele>176.06</ele>
        <time>2012-09-07T08:50:37Z</time>
      </trkpt>
      <trkpt lat="46.4419" lon="4.89001">
        <ele>176.54</ele>
        <time>2012-09-07T08:50:38Z</time>
      </trkpt>
      <trkpt lat="46.44189" lon="4.89007">
        <ele>176.54</ele>
        <time>2012-09-07T08:50:39Z</time>
      </trkpt>
      <trkpt lat="46.44175" lon="4.89061">
        <ele>175.1</ele>
        <time>2012-09-07T08:50:52Z</time>
      </trkpt>
      <trkpt lat="46.44174" lon="4.89064">
        <ele>174.62</ele>
        <time>2012-09-07T08:51:04Z</time>
      </trkpt>
      <trkpt lat="46.44174" lon="4.89065">
        <ele>175.1</ele>
        <time>2012-09-07T08:51:40Z</time>
      </trkpt>
      <trkpt lat="46.44174" lon="4.89065">
        <ele>174.62</ele>
        <time>2012-09-07T08:52:01Z</time>
      </trkpt>
      <trkpt lat="46.44175" lon="4.89066">
        <ele>174.62</ele>
        <time>2012-09-07T08:52:02Z</time>
      </trkpt>
      <trkpt lat="46.44201" lon="4.89081">
        <ele>175.1</ele>
        <time>2012-09-07T08:52:13Z</time>
      </trkpt>
      <trkpt lat="46.44247" lon="4.89108">
        <ele>175.1</ele>
        <time>2012-09-07T08:52:26Z</time>
      </trkpt>
      <trkpt lat="46.44274" lon="4.89125">
        <ele>175.1</ele>
        <time>2012-09-07T08:52:33Z</time>
      </trkpt>
      <trkpt lat="46.44335" lon="4.89161">
        <ele>175.1</ele>
        <time>2012-09-07T08:52:48Z</time>
      </trkpt>
      <trkpt lat="46.44339" lon="4.89164">
        <ele>175.1</ele>
        <time>2012-09-07T08:52:49Z</time>
      </trkpt>
      <trkpt lat="46.44408" lon="4.892">
        <ele>175.1</ele>
        <time>2012-09-07T08:53:06Z</time>
      </trkpt>
      <trkpt lat="46.44425" lon="4.89209">
        <ele>175.1</ele>
        <time>2012-09-07T08:53:10Z</time>
      </trkpt>
      <trkpt lat="46.44501" lon="4.89242">
        <ele>175.1</ele>
        <time>2012-09-07T08:53:28Z</time>
      </trkpt>
      <trkpt lat="46.44567" lon="4.89275">
        <ele>175.1</ele>
        <time>2012-09-07T08:53:44Z</time>
      </trkpt>
      <trkpt lat="46.44575" lon="4.89279">
        <ele>175.1</ele>
        <time>2012-09-07T08:53:46Z</time>
      </trkpt>
      <trkpt lat="46.44625" lon="4.89305">
        <ele>175.1</ele>
        <time>2012-09-07T08:54:01Z</time>
      </trkpt>
      <trkpt lat="46.44676" lon="4.89348">
        <ele>175.1</ele>
        <time>2012-09-07T08:54:16Z</time>
      </trkpt>
      <trkpt lat="46.44728" lon="4.89394">
        <ele>175.1</ele>
        <time>2012-09-07T08:54:31Z</time>
      </trkpt>
      <trkpt lat="46.44761" lon="4.89429">
        <ele>175.58</ele>
        <time>2012-09-07T08:54:43Z</time>
      </trkpt>
      <trkpt lat="46.44766" lon="4.89436">
        <ele>176.06</ele>
        <time>2012-09-07T08:54:51Z</time>
      </trkpt>
      <trkpt lat="46.4478" lon="4.8946">
        <ele>177.5</ele>
        <time>2012-09-07T08:55:11Z</time>
      </trkpt>
      <trkpt lat="46.44783" lon="4.8946">
        <ele>177.02</ele>
        <time>2012-09-07T08:55:44Z</time>
      </trkpt>
      <trkpt lat="46.44784" lon="4.89461">
        <ele>177.5</ele>
        <time>2012-09-07T08:55:45Z</time>
      </trkpt>
      <trkpt lat="46.44785" lon="4.89462">
        <ele>177.5</ele>
        <time>2012-09-07T08:55:46Z</time>
      </trkpt>
      <trkpt lat="46.44801" lon="4.89474">
        <ele>178.94</ele>
        <time>2012-09-07T08:56:04Z</time>
      </trkpt>
      <trkpt lat="46.44805" lon="4.89473">
        <ele>178.46</ele>
        <time>2012-09-07T08:56:14Z</time>
      </trkpt>
      <trkpt lat="46.44806" lon="4.89474">
        <ele>178.46</ele>
        <time>2012-09-07T08:56:15Z</time>
      </trkpt>
      <trkpt lat="46.44809" lon="4.89477">
        <ele>177.98</ele>
        <time>2012-09-07T08:56:28Z</time>
      </trkpt>
      <trkpt lat="46.4481" lon="4.89478">
        <ele>177.5</ele>
        <time>2012-09-07T08:56:51Z</time>
      </trkpt>
      <trkpt lat="46.44812" lon="4.89478">
        <ele>177.5</ele>
        <time>2012-09-07T08:56:52Z</time>
      </trkpt>
      <trkpt lat="46.44814" lon="4.89479">
        <ele>177.02</ele>
        <time>2012-09-07T08:56:53Z</time>
      </trkpt>
      <trkpt lat="46.44817" lon="4.8948">
        <ele>176.54</ele>
        <time>2012-09-07T08:56:54Z</time>
      </trkpt>
      <trkpt lat="46.44819" lon="4.89481">
        <ele>176.06</ele>
        <time>2012-09-07T08:56:55Z</time>
      </trkpt>
      <trkpt lat="46.4482" lon="4.89482">
        <ele>176.06</ele>
        <time>2012-09-07T08:56:56Z</time>
      </trkpt>
      <trkpt lat="46.44823" lon="4.89485">
        <ele>176.06</ele>
        <time>2012-09-07T08:56:58Z</time>
      </trkpt>
      <trkpt lat="46.44824" lon="4.89486">
        <ele>175.58</ele>
        <time>2012-09-07T08:56:59Z</time>
      </trkpt>
      <trkpt lat="46.44826" lon="4.89488">
        <ele>175.1</ele>
        <time>2012-09-07T08:57:00Z</time>
      </trkpt>
      <trkpt lat="46.44828" lon="4.89489">
        <ele>175.1</ele>
        <time>2012-09-07T08:57:01Z</time>
      </trkpt>
      <trkpt lat="46.4483" lon="4.8949">
        <ele>175.1</ele>
        <time>2012-09-07T08:57:02Z</time>
      </trkpt>
      <trkpt lat="46.44837" lon="4.89492">
        <ele>174.62</ele>
        <time>2012-09-07T08:57:14Z</time>
      </trkpt>
      <trkpt lat="46.4484" lon="4.89492">
        <ele>174.62</ele>
        <time>2012-09-07T08:57:49Z</time>
      </trkpt>
      <trkpt lat="46.44841" lon="4.89492">
        <ele>174.14</ele>
        <time>2012-09-07T08:58:11Z</time>
      </trkpt>
      <trkpt lat="46.44841" lon="4.89492">
        <ele>174.14</ele>
        <time>2012-09-07T08:58:40Z</time>
      </trkpt>
      <trkpt lat="46.44839" lon="4.89491">
        <ele>174.62</ele>
        <time>2012-09-07T08:58:41Z</time>
      </trkpt>
      <trkpt lat="46.44838" lon="4.8949">
        <ele>174.62</ele>
        <time>2012-09-07T08:58:54Z</time>
      </trkpt>
      <trkpt lat="46.44839" lon="4.89493">
        <ele>174.62</ele>
        <time>2012-09-07T08:59:05Z</time>
      </trkpt>
      <trkpt lat="46.4484" lon="4.89492">
        <ele>174.62</ele>
        <time>2012-09-07T08:59:13Z</time>
      </trkpt>
      <trkpt lat="46.44842" lon="4.89493">
        <ele>174.62</ele>
        <time>2012-09-07T08:59:15Z</time>
      </trkpt>
      <trkpt lat="46.44843" lon="4.89494">
        <ele>174.62</ele>
        <time>2012-09-07T08:59:16Z</time>
      </trkpt>
      <trkpt lat="46.44873" lon="4.89518">
        <ele>174.14</ele>
        <time>2012-09-07T08:59:29Z</time>
      </trkpt>
      <trkpt lat="46.44911" lon="4.89549">
        <ele>174.62</ele>
        <time>2012-09-07T08:59:41Z</time>
      </trkpt>
      <trkpt lat="46.44933" lon="4.89569">
        <ele>174.62</ele>
        <time>2012-09-07T08:59:48Z</time>
      </trkpt>
      <trkpt lat="46.44936" lon="4.89571">
        <ele>174.62</ele>
        <time>2012-09-07T08:59:49Z</time>
      </trkpt>
      <trkpt lat="46.4494" lon="4.89575">
        <ele>174.62</ele>
        <time>2012-09-07T08:59:50Z</time>
      </trkpt>
      <trkpt lat="46.44972" lon="4.89604">
        <ele>174.62</ele>
        <time>2012-09-07T09:00:00Z</time>
      </trkpt>
      <trkpt lat="46.45013" lon="4.89649">
        <ele>174.62</ele>
        <time>2012-09-07T09:00:13Z</time>
      </trkpt>
      <trkpt lat="46.45057" lon="4.89689">
        <ele>175.1</ele>
        <time>2012-09-07T09:00:25Z</time>
      </trkpt>
      <trkpt lat="46.451" lon="4.89743">
        <ele>174.62</ele>
        <time>2012-09-07T09:00:39Z</time>
      </trkpt>
      <trkpt lat="46.4514" lon="4.89796">
        <ele>174.14</ele>
        <time>2012-09-07T09:00:51Z</time>
      </trkpt>
      <trkpt lat="46.45143" lon="4.89801">
        <ele>174.62</ele>
        <time>2012-09-07T09:00:52Z</time>
      </trkpt>
      <trkpt lat="46.45157" lon="4.89827">
        <ele>174.14</ele>
        <time>2012-09-07T09:00:57Z</time>
      </trkpt>
      <trkpt lat="46.45202" lon="4.89906">
        <ele>174.62</ele>
        <time>2012-09-07T09:01:13Z</time>
      </trkpt>
      <trkpt lat="46.45239" lon="4.89967">
        <ele>174.62</ele>
        <time>2012-09-07T09:01:26Z</time>
      </trkpt>
      <trkpt lat="46.45283" lon="4.90031">
        <ele>174.62</ele>
        <time>2012-09-07T09:01:40Z</time>
      </trkpt>
      <trkpt lat="46.45339" lon="4.90105">
        <ele>174.62</ele>
        <time>2012-09-07T09:01:57Z</time>
      </trkpt>
      <trkpt lat="46.45376" lon="4.90158">
        <ele>174.62</ele>
        <time>2012-09-07T09:02:12Z</time>
      </trkpt>
      <trkpt lat="46.45415" lon="4.90217">
        <ele>175.1</ele>
        <time>2012-09-07T09:02:27Z</time>
      </trkpt>
      <trkpt lat="46.4546" lon="4.90275">
        <ele>174.62</ele>
        <time>2012-09-07T09:02:42Z</time>
      </trkpt>
      <trkpt lat="46.45517" lon="4.90359">
        <ele>175.1</ele>
        <time>2012-09-07T09:03:01Z</time>
      </trkpt>
      <trkpt lat="46.45552" lon="4.90427">
        <ele>174.62</ele>
        <time>2012-09-07T09:03:16Z</time>
      </trkpt>
      <trkpt lat="46.45589" lon="4.905">
        <ele>174.62</ele>
        <time>2012-09-07T09:03:32Z</time>
      </trkpt>
      <trkpt lat="46.45625" lon="4.90567">
        <ele>174.62</ele>
        <time>2012-09-07T09:03:47Z</time>
      </trkpt>
      <trkpt lat="46.45648" lon="4.90609">
        <ele>174.62</ele>
        <time>2012-09-07T09:03:56Z</time>
      </trkpt>
      <trkpt lat="46.45651" lon="4.90614">
        <ele>174.62</ele>
        <time>2012-09-07T09:03:57Z</time>
      </trkpt>
      <trkpt lat="46.45688" lon="4.90685">
        <ele>174.62</ele>
        <time>2012-09-07T09:04:12Z</time>
      </trkpt>
      <trkpt lat="46.45726" lon="4.90749">
        <ele>174.62</ele>
        <time>2012-09-07T09:04:27Z</time>
      </trkpt>
      <trkpt lat="46.45776" lon="4.90819">
        <ele>174.62</ele>
        <time>2012-09-07T09:04:44Z</time>
      </trkpt>
      <trkpt lat="46.45829" lon="4.9088">
        <ele>174.62</ele>
        <time>2012-09-07T09:05:00Z</time>
      </trkpt>
      <trkpt lat="46.4588" lon="4.90956">
        <ele>174.14</ele>
        <time>2012-09-07T09:05:16Z</time>
      </trkpt>
      <trkpt lat="46.45919" lon="4.91008">
        <ele>174.14</ele>
        <time>2012-09-07T09:05:31Z</time>
      </trkpt>
      <trkpt lat="46.45949" lon="4.91041">
        <ele>174.14</ele>
        <time>2012-09-07T09:05:43Z</time>
      </trkpt>
      <trkpt lat="46.45981" lon="4.91078">
        <ele>174.14</ele>
        <time>2012-09-07T09:05:55Z</time>
      </trkpt>
      <trkpt lat="46.46016" lon="4.91115">
        <ele>174.14</ele>
        <time>2012-09-07T09:06:07Z</time>
      </trkpt>
      <trkpt lat="46.46067" lon="4.91156">
        <ele>174.14</ele>
        <time>2012-09-07T09:06:22Z</time>
      </trkpt>
      <trkpt lat="46.46112" lon="4.91187">
        <ele>174.14</ele>
        <time>2012-09-07T09:06:35Z</time>
      </trkpt>
      <trkpt lat="46.46172" lon="4.91226">
        <ele>174.14</ele>
        <time>2012-09-07T09:06:51Z</time>
      </trkpt>
      <trkpt lat="46.46236" lon="4.91257">
        <ele>174.14</ele>
        <time>2012-09-07T09:07:08Z</time>
      </trkpt>
      <trkpt lat="46.46272" lon="4.91272">
        <ele>174.14</ele>
        <time>2012-09-07T09:07:17Z</time>
      </trkpt>
      <trkpt lat="46.46332" lon="4.91293">
        <ele>174.14</ele>
        <time>2012-09-07T09:07:32Z</time>
      </trkpt>
      <trkpt lat="46.46392" lon="4.91303">
        <ele>173.66</ele>
        <time>2012-09-07T09:07:46Z</time>
      </trkpt>
      <trkpt lat="46.46455" lon="4.91306">
        <ele>173.66</ele>
        <time>2012-09-07T09:08:02Z</time>
      </trkpt>
      <trkpt lat="46.46504" lon="4.91324">
        <ele>173.66</ele>
        <time>2012-09-07T09:08:15Z</time>
      </trkpt>
      <trkpt lat="46.46565" lon="4.91336">
        <ele>173.66</ele>
        <time>2012-09-07T09:08:30Z</time>
      </trkpt>
      <trkpt lat="46.46615" lon="4.91358">
        <ele>173.66</ele>
        <time>2012-09-07T09:08:43Z</time>
      </trkpt>
      <trkpt lat="46.46644" lon="4.91373">
        <ele>173.66</ele>
        <time>2012-09-07T09:08:50Z</time>
      </trkpt>
      <trkpt lat="46.46648" lon="4.91373">
        <ele>173.66</ele>
        <time>2012-09-07T09:08:51Z</time>
      </trkpt>
      <trkpt lat="46.46703" lon="4.9137">
        <ele>173.66</ele>
        <time>2012-09-07T09:09:05Z</time>
      </trkpt>
      <trkpt lat="46.4675" lon="4.91396">
        <ele>173.66</ele>
        <time>2012-09-07T09:09:18Z</time>
      </trkpt>
      <trkpt lat="46.46782" lon="4.91412">
        <ele>173.66</ele>
        <time>2012-09-07T09:09:31Z</time>
      </trkpt>
      <trkpt lat="46.46819" lon="4.91418">
        <ele>173.66</ele>
        <time>2012-09-07T09:09:45Z</time>
      </trkpt>
      <trkpt lat="46.46869" lon="4.91419">
        <ele>174.14</ele>
        <time>2012-09-07T09:09:59Z</time>
      </trkpt>
      <trkpt lat="46.46917" lon="4.91414">
        <ele>174.14</ele>
        <time>2012-09-07T09:10:12Z</time>
      </trkpt>
      <trkpt lat="46.46971" lon="4.91415">
        <ele>174.14</ele>
        <time>2012-09-07T09:10:26Z</time>
      </trkpt>
      <trkpt lat="46.47015" lon="4.91414">
        <ele>173.66</ele>
        <time>2012-09-07T09:10:38Z</time>
      </trkpt>
      <trkpt lat="46.47059" lon="4.91407">
        <ele>173.66</ele>
        <time>2012-09-07T09:10:52Z</time>
      </trkpt>
      <trkpt lat="46.47119" lon="4.91409">
        <ele>173.66</ele>
        <time>2012-09-07T09:11:08Z</time>
      </trkpt>
      <trkpt lat="46.47179" lon="4.91414">
        <ele>174.14</ele>
        <time>2012-09-07T09:11:23Z</time>
      </trkpt>
      <trkpt lat="46.47245" lon="4.91417">
        <ele>173.66</ele>
        <time>2012-09-07T09:11:39Z</time>
      </trkpt>
      <trkpt lat="46.47275" lon="4.91417">
        <ele>173.66</ele>
        <time>2012-09-07T09:11:46Z</time>
      </trkpt>
      <trkpt lat="46.4728" lon="4.91417">
        <ele>173.66</ele>
        <time>2012-09-07T09:11:47Z</time>
      </trkpt>
      <trkpt lat="46.47339" lon="4.91415">
        <ele>173.66</ele>
        <time>2012-09-07T09:12:01Z</time>
      </trkpt>
      <trkpt lat="46.47348" lon="4.91414">
        <ele>174.14</ele>
        <time>2012-09-07T09:12:03Z</time>
      </trkpt>
      <trkpt lat="46.4739" lon="4.91411">
        <ele>174.14</ele>
        <time>2012-09-07T09:12:13Z</time>
      </trkpt>
      <trkpt lat="46.47402" lon="4.91409">
        <ele>174.14</ele>
        <time>2012-09-07T09:12:16Z</time>
      </trkpt>
      <trkpt lat="46.47406" lon="4.91408">
        <ele>174.14</ele>
        <time>2012-09-07T09:12:17Z</time>
      </trkpt>
      <trkpt lat="46.47472" lon="4.91395">
        <ele>174.14</ele>
        <time>2012-09-07T09:12:33Z</time>
      </trkpt>
      <trkpt lat="46.47546" lon="4.91378">
        <ele>174.62</ele>
        <time>2012-09-07T09:12:51Z</time>
      </trkpt>
      <trkpt lat="46.47613" lon="4.91349">
        <ele>174.14</ele>
        <time>2012-09-07T09:13:08Z</time>
      </trkpt>
      <trkpt lat="46.47647" lon="4.91336">
        <ele>175.1</ele>
        <time>2012-09-07T09:13:20Z</time>
      </trkpt>
      <trkpt lat="46.47658" lon="4.91332">
        <ele>174.62</ele>
        <time>2012-09-07T09:13:23Z</time>
      </trkpt>
      <trkpt lat="46.47719" lon="4.91325">
        <ele>173.17</ele>
        <time>2012-09-07T09:13:37Z</time>
      </trkpt>
      <trkpt lat="46.4774" lon="4.9132">
        <ele>173.17</ele>
        <time>2012-09-07T09:13:42Z</time>
      </trkpt>
      <trkpt lat="46.47744" lon="4.91319">
        <ele>173.17</ele>
        <time>2012-09-07T09:13:43Z</time>
      </trkpt>
      <trkpt lat="46.47785" lon="4.91298">
        <ele>173.66</ele>
        <time>2012-09-07T09:13:56Z</time>
      </trkpt>
      <trkpt lat="46.47839" lon="4.91286">
        <ele>173.66</ele>
        <time>2012-09-07T09:14:10Z</time>
      </trkpt>
      <trkpt lat="46.47891" lon="4.91281">
        <ele>173.66</ele>
        <time>2012-09-07T09:14:23Z</time>
      </trkpt>
      <trkpt lat="46.47921" lon="4.91274">
        <ele>173.66</ele>
        <time>2012-09-07T09:14:33Z</time>
      </trkpt>
      <trkpt lat="46.47925" lon="4.91272">
        <ele>173.66</ele>
        <time>2012-09-07T09:14:44Z</time>
      </trkpt>
      <trkpt lat="46.47927" lon="4.91274">
        <ele>173.17</ele>
        <time>2012-09-07T09:15:18Z</time>
      </trkpt>
      <trkpt lat="46.47926" lon="4.91275">
        <ele>173.17</ele>
        <time>2012-09-07T09:15:58Z</time>
      </trkpt>
      <trkpt lat="46.47925" lon="4.91273">
        <ele>173.66</ele>
        <time>2012-09-07T09:16:34Z</time>
      </trkpt>
      <trkpt lat="46.47924" lon="4.91273">
        <ele>173.17</ele>
        <time>2012-09-07T09:17:08Z</time>
      </trkpt>
      <trkpt lat="46.47924" lon="4.91275">
        <ele>173.66</ele>
        <time>2012-09-07T09:17:44Z</time>
      </trkpt>
      <trkpt lat="46.47924" lon="4.91275">
        <ele>173.17</ele>
        <time>2012-09-07T09:18:16Z</time>
      </trkpt>
      <trkpt lat="46.47924" lon="4.91274">
        <ele>173.17</ele>
        <time>2012-09-07T09:18:45Z</time>
      </trkpt>
      <trkpt lat="46.47924" lon="4.91274">
        <ele>172.21</ele>
        <time>2012-09-07T09:19:14Z</time>
      </trkpt>
      <trkpt lat="46.47924" lon="4.91272">
        <ele>171.73</ele>
        <time>2012-09-07T09:19:38Z</time>
      </trkpt>
      <trkpt lat="46.47927" lon="4.91255">
        <ele>173.66</ele>
        <time>2012-09-07T09:20:29Z</time>
      </trkpt>
      <trkpt lat="46.47926" lon="4.91272">
        <ele>170.29</ele>
        <time>2012-09-07T09:20:50Z</time>
      </trkpt>
      <trkpt lat="46.47926" lon="4.91272">
        <ele>177.5</ele>
        <time>2012-09-07T09:20:51Z</time>
      </trkpt>
      <trkpt lat="46.47926" lon="4.91272">
        <ele>175.58</ele>
        <time>2012-09-07T09:20:52Z</time>
      </trkpt>
      <trkpt lat="46.47926" lon="4.91273">
        <ele>173.66</ele>
        <time>2012-09-07T09:20:54Z</time>
      </trkpt>
      <trkpt lat="46.47929" lon="4.91275">
        <ele>173.66</ele>
        <time>2012-09-07T09:21:09Z</time>
      </trkpt>
      <trkpt lat="46.4796" lon="4.91269">
        <ele>173.66</ele>
        <time>2012-09-07T09:21:22Z</time>
      </trkpt>
      <trkpt lat="46.48001" lon="4.91264">
        <ele>173.17</ele>
        <time>2012-09-07T09:21:33Z</time>
      </trkpt>
      <trkpt lat="46.48047" lon="4.91261">
        <ele>173.66</ele>
        <time>2012-09-07T09:21:44Z</time>
      </trkpt>
      <trkpt lat="46.48079" lon="4.91257">
        <ele>173.66</ele>
        <time>2012-09-07T09:21:51Z</time>
      </trkpt>
      <trkpt lat="46.48083" lon="4.91257">
        <ele>173.66</ele>
        <time>2012-09-07T09:21:52Z</time>
      </trkpt>
      <trkpt lat="46.48123" lon="4.91253">
        <ele>174.14</ele>
        <time>2012-09-07T09:22:03Z</time>
      </trkpt>
      <trkpt lat="46.48165" lon="4.91257">
        <ele>173.66</ele>
        <time>2012-09-07T09:22:15Z</time>
      </trkpt>
      <trkpt lat="46.48203" lon="4.91262">
        <ele>173.17</ele>
        <time>2012-09-07T09:22:23Z</time>
      </trkpt>
      <trkpt lat="46.48219" lon="4.91263">
        <ele>173.17</ele>
        <time>2012-09-07T09:22:26Z</time>
      </trkpt>
      <trkpt lat="46.48224" lon="4.91264">
        <ele>173.17</ele>
        <time>2012-09-07T09:22:27Z</time>
      </trkpt>
      <trkpt lat="46.48275" lon="4.91259">
        <ele>173.66</ele>
        <time>2012-09-07T09:22:39Z</time>
      </trkpt>
      <trkpt lat="46.48337" lon="4.91254">
        <ele>173.66</ele>
        <time>2012-09-07T09:22:52Z</time>
      </trkpt>
      <trkpt lat="46.48368" lon="4.91254">
        <ele>173.66</ele>
        <time>2012-09-07T09:22:59Z</time>
      </trkpt>
      <trkpt lat="46.48428" lon="4.91255">
        <ele>173.17</ele>
        <time>2012-09-07T09:23:13Z</time>
      </trkpt>
      <trkpt lat="46.48469" lon="4.91252">
        <ele>173.17</ele>
        <time>2012-09-07T09:23:24Z</time>
      </trkpt>
      <trkpt lat="46.48531" lon="4.91237">
        <ele>173.17</ele>
        <time>2012-09-07T09:23:38Z</time>
      </trkpt>
      <trkpt lat="46.48591" lon="4.91226">
        <ele>173.17</ele>
        <time>2012-09-07T09:23:52Z</time>
      </trkpt>
      <trkpt lat="46.48601" lon="4.91226">
        <ele>173.17</ele>
        <time>2012-09-07T09:23:54Z</time>
      </trkpt>
      <trkpt lat="46.48605" lon="4.91226">
        <ele>173.17</ele>
        <time>2012-09-07T09:23:55Z</time>
      </trkpt>
      <trkpt lat="46.48615" lon="4.91227">
        <ele>173.17</ele>
        <time>2012-09-07T09:23:57Z</time>
      </trkpt>
      <trkpt lat="46.48619" lon="4.91228">
        <ele>173.17</ele>
        <time>2012-09-07T09:23:58Z</time>
      </trkpt>
      <trkpt lat="46.48624" lon="4.91228">
        <ele>173.17</ele>
        <time>2012-09-07T09:23:59Z</time>
      </trkpt>
      <trkpt lat="46.48663" lon="4.91231">
        <ele>173.17</ele>
        <time>2012-09-07T09:24:10Z</time>
      </trkpt>
      <trkpt lat="46.48699" lon="4.91238">
        <ele>173.17</ele>
        <time>2012-09-07T09:24:18Z</time>
      </trkpt>
      <trkpt lat="46.48748" lon="4.9125">
        <ele>173.17</ele>
        <time>2012-09-07T09:24:31Z</time>
      </trkpt>
      <trkpt lat="46.48761" lon="4.91249">
        <ele>173.17</ele>
        <time>2012-09-07T09:24:34Z</time>
      </trkpt>
      <trkpt lat="46.48769" lon="4.91251">
        <ele>173.17</ele>
        <time>2012-09-07T09:24:46Z</time>
      </trkpt>
      <trkpt lat="46.48768" lon="4.9125">
        <ele>173.17</ele>
        <time>2012-09-07T09:25:18Z</time>
      </trkpt>
      <trkpt lat="46.48774" lon="4.91248">
        <ele>173.17</ele>
        <time>2012-09-07T09:25:32Z</time>
      </trkpt>
      <trkpt lat="46.48799" lon="4.91254">
        <ele>173.17</ele>
        <time>2012-09-07T09:25:43Z</time>
      </trkpt>
      <trkpt lat="46.48839" lon="4.91271">
        <ele>173.17</ele>
        <time>2012-09-07T09:25:56Z</time>
      </trkpt>
      <trkpt lat="46.48887" lon="4.91291">
        <ele>173.17</ele>
        <time>2012-09-07T09:26:09Z</time>
      </trkpt>
      <trkpt lat="46.48935" lon="4.91312">
        <ele>173.17</ele>
        <time>2012-09-07T09:26:21Z</time>
      </trkpt>
      <trkpt lat="46.4894" lon="4.91314">
        <ele>173.17</ele>
        <time>2012-09-07T09:26:22Z</time>
      </trkpt>
      <trkpt lat="46.49001" lon="4.91354">
        <ele>173.17</ele>
        <time>2012-09-07T09:26:35Z</time>
      </trkpt>
      <trkpt lat="46.49053" lon="4.91399">
        <ele>173.17</ele>
        <time>2012-09-07T09:26:48Z</time>
      </trkpt>
      <trkpt lat="46.49057" lon="4.91403">
        <ele>173.17</ele>
        <time>2012-09-07T09:26:49Z</time>
      </trkpt>
      <trkpt lat="46.49094" lon="4.91446">
        <ele>173.17</ele>
        <time>2012-09-07T09:26:59Z</time>
      </trkpt>
      <trkpt lat="46.49097" lon="4.91452">
        <ele>172.69</ele>
        <time>2012-09-07T09:27:00Z</time>
      </trkpt>
      <trkpt lat="46.49114" lon="4.9148">
        <ele>172.69</ele>
        <time>2012-09-07T09:27:08Z</time>
      </trkpt>
      <trkpt lat="46.49117" lon="4.91479">
        <ele>172.69</ele>
        <time>2012-09-07T09:27:19Z</time>
      </trkpt>
      <trkpt lat="46.49117" lon="4.9148">
        <ele>172.69</ele>
        <time>2012-09-07T09:27:53Z</time>
      </trkpt>
      <trkpt lat="46.49117" lon="4.91481">
        <ele>172.69</ele>
        <time>2012-09-07T09:28:10Z</time>
      </trkpt>
      <trkpt lat="46.49117" lon="4.91483">
        <ele>172.69</ele>
        <time>2012-09-07T09:28:11Z</time>
      </trkpt>
      <trkpt lat="46.49116" lon="4.91485">
        <ele>172.69</ele>
        <time>2012-09-07T09:28:12Z</time>
      </trkpt>
      <trkpt lat="46.49115" lon="4.91487">
        <ele>172.69</ele>
        <time>2012-09-07T09:28:13Z</time>
      </trkpt>
      <trkpt lat="46.49115" lon="4.9149">
        <ele>172.69</ele>
        <time>2012-09-07T09:28:14Z</time>
      </trkpt>
      <trkpt lat="46.49115" lon="4.91492">
        <ele>172.69</ele>
        <time>2012-09-07T09:28:15Z</time>
      </trkpt>
      <trkpt lat="46.49116" lon="4.91493">
        <ele>172.69</ele>
        <time>2012-09-07T09:28:16Z</time>
      </trkpt>
      <trkpt lat="46.49117" lon="4.91495">
        <ele>172.69</ele>
        <time>2012-09-07T09:28:17Z</time>
      </trkpt>
      <trkpt lat="46.49138" lon="4.91537">
        <ele>172.69</ele>
        <time>2012-09-07T09:28:30Z</time>
      </trkpt>
      <trkpt lat="46.49165" lon="4.91596">
        <ele>172.69</ele>
        <time>2012-09-07T09:28:43Z</time>
      </trkpt>
      <trkpt lat="46.49201" lon="4.91672">
        <ele>172.69</ele>
        <time>2012-09-07T09:28:59Z</time>
      </trkpt>
      <trkpt lat="46.49243" lon="4.91741">
        <ele>172.69</ele>
        <time>2012-09-07T09:29:15Z</time>
      </trkpt>
      <trkpt lat="46.49285" lon="4.91793">
        <ele>173.17</ele>
        <time>2012-09-07T09:29:30Z</time>
      </trkpt>
      <trkpt lat="46.49323" lon="4.91844">
        <ele>173.66</ele>
        <time>2012-09-07T09:29:44Z</time>
      </trkpt>
      <trkpt lat="46.49376" lon="4.91915">
        <ele>173.17</ele>
        <time>2012-09-07T09:30:01Z</time>
      </trkpt>
      <trkpt lat="46.49392" lon="4.91935">
        <ele>173.66</ele>
        <time>2012-09-07T09:30:06Z</time>
      </trkpt>
      <trkpt lat="46.49431" lon="4.92001">
        <ele>173.66</ele>
        <time>2012-09-07T09:30:20Z</time>
      </trkpt>
      <trkpt lat="46.49496" lon="4.92105">
        <ele>173.66</ele>
        <time>2012-09-07T09:30:43Z</time>
      </trkpt>
      <trkpt lat="46.49538" lon="4.92174">
        <ele>173.17</ele>
        <time>2012-09-07T09:30:59Z</time>
      </trkpt>
      <trkpt lat="46.4958" lon="4.92253">
        <ele>173.66</ele>
        <time>2012-09-07T09:31:15Z</time>
      </trkpt>
      <trkpt lat="46.49637" lon="4.92332">
        <ele>173.17</ele>
        <time>2012-09-07T09:31:34Z</time>
      </trkpt>
      <trkpt lat="46.49683" lon="4.92386">
        <ele>173.66</ele>
        <time>2012-09-07T09:31:49Z</time>
      </trkpt>
      <trkpt lat="46.49746" lon="4.92441">
        <ele>173.17</ele>
        <time>2012-09-07T09:32:07Z</time>
      </trkpt>
      <trkpt lat="46.49813" lon="4.92481">
        <ele>173.66</ele>
        <time>2012-09-07T09:32:27Z</time>
      </trkpt>
      <trkpt lat="46.49889" lon="4.92522">
        <ele>173.66</ele>
        <time>2012-09-07T09:32:49Z</time>
      </trkpt>
      <trkpt lat="46.49966" lon="4.92567">
        <ele>173.17</ele>
        <time>2012-09-07T09:33:10Z</time>
      </trkpt>
      <trkpt lat="46.50029" lon="4.92599">
        <ele>172.69</ele>
        <time>2012-09-07T09:33:26Z</time>
      </trkpt>
      <trkpt lat="46.50077" lon="4.92611">
        <ele>172.69</ele>
        <time>2012-09-07T09:33:40Z</time>
      </trkpt>
      <trkpt lat="46.50121" lon="4.92614">
        <ele>172.21</ele>
        <time>2012-09-07T09:33:53Z</time>
      </trkpt>
      <trkpt lat="46.50131" lon="4.92613">
        <ele>172.69</ele>
        <time>2012-09-07T09:34:03Z</time>
      </trkpt>
      <trkpt lat="46.50132" lon="4.9261">
        <ele>172.69</ele>
        <time>2012-09-07T09:34:21Z</time>
      </trkpt>
      <trkpt lat="46.50132" lon="4.92611">
        <ele>172.21</ele>
        <time>2012-09-07T09:34:52Z</time>
      </trkpt>
      <trkpt lat="46.50135" lon="4.92612">
        <ele>172.21</ele>
        <time>2012-09-07T09:35:10Z</time>
      </trkpt>
      <trkpt lat="46.50136" lon="4.92612">
        <ele>172.21</ele>
        <time>2012-09-07T09:35:11Z</time>
      </trkpt>
      <trkpt lat="46.50137" lon="4.92613">
        <ele>172.21</ele>
        <time>2012-09-07T09:35:12Z</time>
      </trkpt>
      <trkpt lat="46.50139" lon="4.92613">
        <ele>172.21</ele>
        <time>2012-09-07T09:35:13Z</time>
      </trkpt>
      <trkpt lat="46.5014" lon="4.92614">
        <ele>172.69</ele>
        <time>2012-09-07T09:35:14Z</time>
      </trkpt>
      <trkpt lat="46.50142" lon="4.92614">
        <ele>172.21</ele>
        <time>2012-09-07T09:35:15Z</time>
      </trkpt>
      <trkpt lat="46.50144" lon="4.92615">
        <ele>172.69</ele>
        <time>2012-09-07T09:35:16Z</time>
      </trkpt>
      <trkpt lat="46.50146" lon="4.92615">
        <ele>172.69</ele>
        <time>2012-09-07T09:35:17Z</time>
      </trkpt>
      <trkpt lat="46.50148" lon="4.92614">
        <ele>172.69</ele>
        <time>2012-09-07T09:35:18Z</time>
      </trkpt>
      <trkpt lat="46.50151" lon="4.92614">
        <ele>172.69</ele>
        <time>2012-09-07T09:35:19Z</time>
      </trkpt>
      <trkpt lat="46.50153" lon="4.92614">
        <ele>172.69</ele>
        <time>2012-09-07T09:35:20Z</time>
      </trkpt>
      <trkpt lat="46.50195" lon="4.92615">
        <ele>172.69</ele>
        <time>2012-09-07T09:35:34Z</time>
      </trkpt>
      <trkpt lat="46.50256" lon="4.92634">
        <ele>173.17</ele>
        <time>2012-09-07T09:35:50Z</time>
      </trkpt>
      <trkpt lat="46.50326" lon="4.92676">
        <ele>173.66</ele>
        <time>2012-09-07T09:36:09Z</time>
      </trkpt>
      <trkpt lat="46.5038" lon="4.92702">
        <ele>174.62</ele>
        <time>2012-09-07T09:36:25Z</time>
      </trkpt>
      <trkpt lat="46.50397" lon="4.92716">
        <ele>174.14</ele>
        <time>2012-09-07T09:36:30Z</time>
      </trkpt>
      <trkpt lat="46.50401" lon="4.92719">
        <ele>174.14</ele>
        <time>2012-09-07T09:36:31Z</time>
      </trkpt>
      <trkpt lat="46.50405" lon="4.9272">
        <ele>174.14</ele>
        <time>2012-09-07T09:36:32Z</time>
      </trkpt>
      <trkpt lat="46.50409" lon="4.9272">
        <ele>174.14</ele>
        <time>2012-09-07T09:36:33Z</time>
      </trkpt>
      <trkpt lat="46.50412" lon="4.9272">
        <ele>174.62</ele>
        <time>2012-09-07T09:36:34Z</time>
      </trkpt>
      <trkpt lat="46.50416" lon="4.92721">
        <ele>174.62</ele>
        <time>2012-09-07T09:36:35Z</time>
      </trkpt>
      <trkpt lat="46.50419" lon="4.92723">
        <ele>174.62</ele>
        <time>2012-09-07T09:36:36Z</time>
      </trkpt>
      <trkpt lat="46.50422" lon="4.92725">
        <ele>174.62</ele>
        <time>2012-09-07T09:36:37Z</time>
      </trkpt>
      <trkpt lat="46.50476" lon="4.92762">
        <ele>174.62</ele>
        <time>2012-09-07T09:36:52Z</time>
      </trkpt>
      <trkpt lat="46.50506" lon="4.92792">
        <ele>175.1</ele>
        <time>2012-09-07T09:37:04Z</time>
      </trkpt>
      <trkpt lat="46.50552" lon="4.92805">
        <ele>173.66</ele>
        <time>2012-09-07T09:37:17Z</time>
      </trkpt>
      <trkpt lat="46.50617" lon="4.92831">
        <ele>173.17</ele>
        <time>2012-09-07T09:37:33Z</time>
      </trkpt>
      <trkpt lat="46.50708" lon="4.92864">
        <ele>173.17</ele>
        <time>2012-09-07T09:37:54Z</time>
      </trkpt>
      <trkpt lat="46.50784" lon="4.9288">
        <ele>174.14</ele>
        <time>2012-09-07T09:38:12Z</time>
      </trkpt>
      <trkpt lat="46.50828" lon="4.92896">
        <ele>173.17</ele>
        <time>2012-09-07T09:38:23Z</time>
      </trkpt>
      <trkpt lat="46.50841" lon="4.92898">
        <ele>173.17</ele>
        <time>2012-09-07T09:38:26Z</time>
      </trkpt>
      <trkpt lat="46.50845" lon="4.92898">
        <ele>173.17</ele>
        <time>2012-09-07T09:38:27Z</time>
      </trkpt>
      <trkpt lat="46.50849" lon="4.92899">
        <ele>173.17</ele>
        <time>2012-09-07T09:38:28Z</time>
      </trkpt>
      <trkpt lat="46.50908" lon="4.92919">
        <ele>173.17</ele>
        <time>2012-09-07T09:38:42Z</time>
      </trkpt>
      <trkpt lat="46.50973" lon="4.92948">
        <ele>172.69</ele>
        <time>2012-09-07T09:38:57Z</time>
      </trkpt>
      <trkpt lat="46.51042" lon="4.92987">
        <ele>173.17</ele>
        <time>2012-09-07T09:39:13Z</time>
      </trkpt>
      <trkpt lat="46.51113" lon="4.93032">
        <ele>173.17</ele>
        <time>2012-09-07T09:39:30Z</time>
      </trkpt>
      <trkpt lat="46.5119" lon="4.93095">
        <ele>173.17</ele>
        <time>2012-09-07T09:39:50Z</time>
      </trkpt>
      <trkpt lat="46.51256" lon="4.93161">
        <ele>173.17</ele>
        <time>2012-09-07T09:40:09Z</time>
      </trkpt>
      <trkpt lat="46.51278" lon="4.93181">
        <ele>173.17</ele>
        <time>2012-09-07T09:40:15Z</time>
      </trkpt>
      <trkpt lat="46.51338" lon="4.93236">
        <ele>173.17</ele>
        <time>2012-09-07T09:40:31Z</time>
      </trkpt>
      <trkpt lat="46.51421" lon="4.93318">
        <ele>172.69</ele>
        <time>2012-09-07T09:40:53Z</time>
      </trkpt>
      <trkpt lat="46.51486" lon="4.93391">
        <ele>173.17</ele>
        <time>2012-09-07T09:41:12Z</time>
      </trkpt>
      <trkpt lat="46.51527" lon="4.93438">
        <ele>173.66</ele>
        <time>2012-09-07T09:41:25Z</time>
      </trkpt>
      <trkpt lat="46.5153" lon="4.93442">
        <ele>173.66</ele>
        <time>2012-09-07T09:41:26Z</time>
      </trkpt>
      <trkpt lat="46.51569" lon="4.93482">
        <ele>173.66</ele>
        <time>2012-09-07T09:41:37Z</time>
      </trkpt>
      <trkpt lat="46.51624" lon="4.93532">
        <ele>173.66</ele>
        <time>2012-09-07T09:41:53Z</time>
      </trkpt>
      <trkpt lat="46.51642" lon="4.93546">
        <ele>173.66</ele>
        <time>2012-09-07T09:41:58Z</time>
      </trkpt>
      <trkpt lat="46.51713" lon="4.93596">
        <ele>173.66</ele>
        <time>2012-09-07T09:42:16Z</time>
      </trkpt>
      <trkpt lat="46.51751" lon="4.93615">
        <ele>173.66</ele>
        <time>2012-09-07T09:42:25Z</time>
      </trkpt>
      <trkpt lat="46.51767" lon="4.93624">
        <ele>173.66</ele>
        <time>2012-09-07T09:42:29Z</time>
      </trkpt>
      <trkpt lat="46.51771" lon="4.93626">
        <ele>173.66</ele>
        <time>2012-09-07T09:42:30Z</time>
      </trkpt>
      <trkpt lat="46.51776" lon="4.93628">
        <ele>173.66</ele>
        <time>2012-09-07T09:42:31Z</time>
      </trkpt>
      <trkpt lat="46.51833" lon="4.93653">
        <ele>173.66</ele>
        <time>2012-09-07T09:42:45Z</time>
      </trkpt>
      <trkpt lat="46.51885" lon="4.93669">
        <ele>173.66</ele>
        <time>2012-09-07T09:42:58Z</time>
      </trkpt>
      <trkpt lat="46.51945" lon="4.93688">
        <ele>173.66</ele>
        <time>2012-09-07T09:43:12Z</time>
      </trkpt>
      <trkpt lat="46.52002" lon="4.93705">
        <ele>173.66</ele>
        <time>2012-09-07T09:43:26Z</time>
      </trkpt>
      <trkpt lat="46.52041" lon="4.93707">
        <ele>174.14</ele>
        <time>2012-09-07T09:43:38Z</time>
      </trkpt>
      <trkpt lat="46.52081" lon="4.93704">
        <ele>173.66</ele>
        <time>2012-09-07T09:43:50Z</time>
      </trkpt>
      <trkpt lat="46.5212" lon="4.93698">
        <ele>173.66</ele>
        <time>2012-09-07T09:44:03Z</time>
      </trkpt>
      <trkpt lat="46.52142" lon="4.93694">
        <ele>173.17</ele>
        <time>2012-09-07T09:44:14Z</time>
      </trkpt>
      <trkpt lat="46.52151" lon="4.93693">
        <ele>173.66</ele>
        <time>2012-09-07T09:44:30Z</time>
      </trkpt>
      <trkpt lat="46.52188" lon="4.93692">
        <ele>174.62</ele>
        <time>2012-09-07T09:44:42Z</time>
      </trkpt>
      <trkpt lat="46.52222" lon="4.93691">
        <ele>172.69</ele>
        <time>2012-09-07T09:44:50Z</time>
      </trkpt>
      <trkpt lat="46.52226" lon="4.93691">
        <ele>172.69</ele>
        <time>2012-09-07T09:44:51Z</time>
      </trkpt>
      <trkpt lat="46.52231" lon="4.93691">
        <ele>172.69</ele>
        <time>2012-09-07T09:44:52Z</time>
      </trkpt>
      <trkpt lat="46.52296" lon="4.9368">
        <ele>172.69</ele>
        <time>2012-09-07T09:45:07Z</time>
      </trkpt>
      <trkpt lat="46.52356" lon="4.93654">
        <ele>173.17</ele>
        <time>2012-09-07T09:45:22Z</time>
      </trkpt>
      <trkpt lat="46.52363" lon="4.93649">
        <ele>173.17</ele>
        <time>2012-09-07T09:45:24Z</time>
      </trkpt>
      <trkpt lat="46.52367" lon="4.93647">
        <ele>173.17</ele>
        <time>2012-09-07T09:45:25Z</time>
      </trkpt>
      <trkpt lat="46.52384" lon="4.93642">
        <ele>173.17</ele>
        <time>2012-09-07T09:45:29Z</time>
      </trkpt>
      <trkpt lat="46.52388" lon="4.93641">
        <ele>173.17</ele>
        <time>2012-09-07T09:45:30Z</time>
      </trkpt>
      <trkpt lat="46.52414" lon="4.93637">
        <ele>173.66</ele>
        <time>2012-09-07T09:45:36Z</time>
      </trkpt>
      <trkpt lat="46.52419" lon="4.93636">
        <ele>173.66</ele>
        <time>2012-09-07T09:45:37Z</time>
      </trkpt>
      <trkpt lat="46.52475" lon="4.93625">
        <ele>173.17</ele>
        <time>2012-09-07T09:45:48Z</time>
      </trkpt>
      <trkpt lat="46.52532" lon="4.93604">
        <ele>173.17</ele>
        <time>2012-09-07T09:46:01Z</time>
      </trkpt>
      <trkpt lat="46.52559" lon="4.93602">
        <ele>172.69</ele>
        <time>2012-09-07T09:46:07Z</time>
      </trkpt>
      <trkpt lat="46.52564" lon="4.93602">
        <ele>172.69</ele>
        <time>2012-09-07T09:46:08Z</time>
      </trkpt>
      <trkpt lat="46.52569" lon="4.93602">
        <ele>172.69</ele>
        <time>2012-09-07T09:46:09Z</time>
      </trkpt>
      <trkpt lat="46.526" lon="4.93593">
        <ele>172.21</ele>
        <time>2012-09-07T09:46:16Z</time>
      </trkpt>
      <trkpt lat="46.52605" lon="4.93592">
        <ele>172.21</ele>
        <time>2012-09-07T09:46:17Z</time>
      </trkpt>
      <trkpt lat="46.52608" lon="4.93591">
        <ele>172.21</ele>
        <time>2012-09-07T09:46:18Z</time>
      </trkpt>
      <trkpt lat="46.52612" lon="4.9359">
        <ele>172.21</ele>
        <time>2012-09-07T09:46:19Z</time>
      </trkpt>
      <trkpt lat="46.52616" lon="4.93588">
        <ele>172.21</ele>
        <time>2012-09-07T09:46:20Z</time>
      </trkpt>
      <trkpt lat="46.5262" lon="4.93586">
        <ele>172.21</ele>
        <time>2012-09-07T09:46:21Z</time>
      </trkpt>
      <trkpt lat="46.52623" lon="4.93584">
        <ele>172.21</ele>
        <time>2012-09-07T09:46:22Z</time>
      </trkpt>
      <trkpt lat="46.52663" lon="4.93564">
        <ele>172.21</ele>
        <time>2012-09-07T09:46:32Z</time>
      </trkpt>
      <trkpt lat="46.52732" lon="4.93535">
        <ele>172.21</ele>
        <time>2012-09-07T09:46:49Z</time>
      </trkpt>
      <trkpt lat="46.52782" lon="4.935">
        <ele>173.17</ele>
        <time>2012-09-07T09:47:04Z</time>
      </trkpt>
      <trkpt lat="46.5282" lon="4.93474">
        <ele>173.66</ele>
        <time>2012-09-07T09:47:17Z</time>
      </trkpt>
      <trkpt lat="46.52866" lon="4.93438">
        <ele>173.17</ele>
        <time>2012-09-07T09:47:30Z</time>
      </trkpt>
      <trkpt lat="46.5292" lon="4.93398">
        <ele>173.66</ele>
        <time>2012-09-07T09:47:44Z</time>
      </trkpt>
      <trkpt lat="46.5298" lon="4.93339">
        <ele>174.14</ele>
        <time>2012-09-07T09:48:02Z</time>
      </trkpt>
      <trkpt lat="46.53027" lon="4.93294">
        <ele>174.62</ele>
        <time>2012-09-07T09:48:18Z</time>
      </trkpt>
      <trkpt lat="46.53029" lon="4.93293">
        <ele>174.14</ele>
        <time>2012-09-07T09:48:29Z</time>
      </trkpt>
      <trkpt lat="46.53029" lon="4.93292">
        <ele>174.62</ele>
        <time>2012-09-07T09:48:46Z</time>
      </trkpt>
      <trkpt lat="46.53031" lon="4.9329">
        <ele>174.62</ele>
        <time>2012-09-07T09:49:02Z</time>
      </trkpt>
      <trkpt lat="46.53045" lon="4.93276">
        <ele>174.62</ele>
        <time>2012-09-07T09:49:15Z</time>
      </trkpt>
      <trkpt lat="46.53092" lon="4.93233">
        <ele>175.1</ele>
        <time>2012-09-07T09:49:30Z</time>
      </trkpt>
      <trkpt lat="46.53164" lon="4.93182">
        <ele>174.14</ele>
        <time>2012-09-07T09:49:44Z</time>
      </trkpt>
      <trkpt lat="46.53236" lon="4.93124">
        <ele>173.66</ele>
        <time>2012-09-07T09:50:00Z</time>
      </trkpt>
      <trkpt lat="46.5329" lon="4.93085">
        <ele>173.66</ele>
        <time>2012-09-07T09:50:15Z</time>
      </trkpt>
      <trkpt lat="46.53344" lon="4.93039">
        <ele>173.17</ele>
        <time>2012-09-07T09:50:30Z</time>
      </trkpt>
      <trkpt lat="46.53377" lon="4.93016">
        <ele>173.17</ele>
        <time>2012-09-07T09:50:39Z</time>
      </trkpt>
      <trkpt lat="46.53381" lon="4.93014">
        <ele>173.17</ele>
        <time>2012-09-07T09:50:40Z</time>
      </trkpt>
      <trkpt lat="46.53385" lon="4.93011">
        <ele>173.17</ele>
        <time>2012-09-07T09:50:41Z</time>
      </trkpt>
      <trkpt lat="46.53389" lon="4.93008">
        <ele>173.17</ele>
        <time>2012-09-07T09:50:42Z</time>
      </trkpt>
      <trkpt lat="46.53392" lon="4.93005">
        <ele>173.17</ele>
        <time>2012-09-07T09:50:43Z</time>
      </trkpt>
      <trkpt lat="46.534" lon="4.92999">
        <ele>173.66</ele>
        <time>2012-09-07T09:50:45Z</time>
      </trkpt>
      <trkpt lat="46.53403" lon="4.92996">
        <ele>173.66</ele>
        <time>2012-09-07T09:50:46Z</time>
      </trkpt>
      <trkpt lat="46.53453" lon="4.92955">
        <ele>173.66</ele>
        <time>2012-09-07T09:51:00Z</time>
      </trkpt>
      <trkpt lat="46.53487" lon="4.92935">
        <ele>174.62</ele>
        <time>2012-09-07T09:51:09Z</time>
      </trkpt>
      <trkpt lat="46.53526" lon="4.92909">
        <ele>175.58</ele>
        <time>2012-09-07T09:51:22Z</time>
      </trkpt>
      <trkpt lat="46.53547" lon="4.92895">
        <ele>175.1</ele>
        <time>2012-09-07T09:51:28Z</time>
      </trkpt>
      <trkpt lat="46.53616" lon="4.9286">
        <ele>173.17</ele>
        <time>2012-09-07T09:51:42Z</time>
      </trkpt>
      <trkpt lat="46.5364" lon="4.92846">
        <ele>173.17</ele>
        <time>2012-09-07T09:51:47Z</time>
      </trkpt>
      <trkpt lat="46.53645" lon="4.92843">
        <ele>173.17</ele>
        <time>2012-09-07T09:51:48Z</time>
      </trkpt>
      <trkpt lat="46.53731" lon="4.92795">
        <ele>172.69</ele>
        <time>2012-09-07T09:52:07Z</time>
      </trkpt>
      <trkpt lat="46.53809" lon="4.9275">
        <ele>173.17</ele>
        <time>2012-09-07T09:52:26Z</time>
      </trkpt>
      <trkpt lat="46.53817" lon="4.92745">
        <ele>172.69</ele>
        <time>2012-09-07T09:52:28Z</time>
      </trkpt>
      <trkpt lat="46.53874" lon="4.92711">
        <ele>172.69</ele>
        <time>2012-09-07T09:52:42Z</time>
      </trkpt>
      <trkpt lat="46.53891" lon="4.92702">
        <ele>173.17</ele>
        <time>2012-09-07T09:52:46Z</time>
      </trkpt>
      <trkpt lat="46.53963" lon="4.9267">
        <ele>172.69</ele>
        <time>2012-09-07T09:53:03Z</time>
      </trkpt>
      <trkpt lat="46.54039" lon="4.9264">
        <ele>172.69</ele>
        <time>2012-09-07T09:53:21Z</time>
      </trkpt>
      <trkpt lat="46.54104" lon="4.92612">
        <ele>172.69</ele>
        <time>2012-09-07T09:53:37Z</time>
      </trkpt>
      <trkpt lat="46.54121" lon="4.92605">
        <ele>172.69</ele>
        <time>2012-09-07T09:53:41Z</time>
      </trkpt>
      <trkpt lat="46.54126" lon="4.92603">
        <ele>172.69</ele>
        <time>2012-09-07T09:53:42Z</time>
      </trkpt>
      <trkpt lat="46.5413" lon="4.92601">
        <ele>172.69</ele>
        <time>2012-09-07T09:53:43Z</time>
      </trkpt>
      <trkpt lat="46.54134" lon="4.926">
        <ele>173.17</ele>
        <time>2012-09-07T09:53:44Z</time>
      </trkpt>
      <trkpt lat="46.54138" lon="4.92598">
        <ele>173.17</ele>
        <time>2012-09-07T09:53:45Z</time>
      </trkpt>
      <trkpt lat="46.54194" lon="4.92567">
        <ele>173.17</ele>
        <time>2012-09-07T09:54:00Z</time>
      </trkpt>
      <trkpt lat="46.54244" lon="4.92542">
        <ele>173.17</ele>
        <time>2012-09-07T09:54:14Z</time>
      </trkpt>
      <trkpt lat="46.54277" lon="4.9252">
        <ele>173.17</ele>
        <time>2012-09-07T09:54:25Z</time>
      </trkpt>
      <trkpt lat="46.5432" lon="4.92493">
        <ele>173.66</ele>
        <time>2012-09-07T09:54:37Z</time>
      </trkpt>
      <trkpt lat="46.54376" lon="4.92466">
        <ele>173.17</ele>
        <time>2012-09-07T09:54:52Z</time>
      </trkpt>
      <trkpt lat="46.54431" lon="4.92443">
        <ele>173.17</ele>
        <time>2012-09-07T09:55:07Z</time>
      </trkpt>
      <trkpt lat="46.54435" lon="4.92441">
        <ele>173.17</ele>
        <time>2012-09-07T09:55:08Z</time>
      </trkpt>
      <trkpt lat="46.54439" lon="4.92439">
        <ele>173.17</ele>
        <time>2012-09-07T09:55:09Z</time>
      </trkpt>
      <trkpt lat="46.54443" lon="4.92436">
        <ele>173.17</ele>
        <time>2012-09-07T09:55:10Z</time>
      </trkpt>
      <trkpt lat="46.54447" lon="4.92434">
        <ele>173.17</ele>
        <time>2012-09-07T09:55:11Z</time>
      </trkpt>
      <trkpt lat="46.5445" lon="4.92431">
        <ele>173.17</ele>
        <time>2012-09-07T09:55:12Z</time>
      </trkpt>
      <trkpt lat="46.54485" lon="4.92405">
        <ele>172.21</ele>
        <time>2012-09-07T09:55:25Z</time>
      </trkpt>
      <trkpt lat="46.54486" lon="4.92404">
        <ele>171.73</ele>
        <time>2012-09-07T09:55:46Z</time>
      </trkpt>
      <trkpt lat="46.54486" lon="4.92403">
        <ele>172.21</ele>
        <time>2012-09-07T09:55:57Z</time>
      </trkpt>
      <trkpt lat="46.5451" lon="4.92382">
        <ele>172.21</ele>
        <time>2012-09-07T09:56:09Z</time>
      </trkpt>
      <trkpt lat="46.54558" lon="4.92347">
        <ele>172.21</ele>
        <time>2012-09-07T09:56:24Z</time>
      </trkpt>
      <trkpt lat="46.54596" lon="4.92321">
        <ele>172.69</ele>
        <time>2012-09-07T09:56:34Z</time>
      </trkpt>
      <trkpt lat="46.54658" lon="4.92285">
        <ele>172.69</ele>
        <time>2012-09-07T09:56:49Z</time>
      </trkpt>
      <trkpt lat="46.54666" lon="4.9228">
        <ele>172.21</ele>
        <time>2012-09-07T09:56:51Z</time>
      </trkpt>
      <trkpt lat="46.54723" lon="4.92238">
        <ele>172.69</ele>
        <time>2012-09-07T09:57:06Z</time>
      </trkpt>
      <trkpt lat="46.54787" lon="4.92182">
        <ele>172.69</ele>
        <time>2012-09-07T09:57:23Z</time>
      </trkpt>
      <trkpt lat="46.54854" lon="4.92114">
        <ele>172.21</ele>
        <time>2012-09-07T09:57:41Z</time>
      </trkpt>
      <trkpt lat="46.54918" lon="4.92076">
        <ele>173.17</ele>
        <time>2012-09-07T09:57:57Z</time>
      </trkpt>
      <trkpt lat="46.54975" lon="4.9205">
        <ele>173.17</ele>
        <time>2012-09-07T09:58:12Z</time>
      </trkpt>
      <trkpt lat="46.55042" lon="4.92024">
        <ele>173.66</ele>
        <time>2012-09-07T09:58:28Z</time>
      </trkpt>
      <trkpt lat="46.55103" lon="4.92004">
        <ele>173.66</ele>
        <time>2012-09-07T09:58:43Z</time>
      </trkpt>
      <trkpt lat="46.5516" lon="4.91979">
        <ele>173.17</ele>
        <time>2012-09-07T09:58:56Z</time>
      </trkpt>
      <trkpt lat="46.55218" lon="4.91952">
        <ele>172.69</ele>
        <time>2012-09-07T09:59:10Z</time>
      </trkpt>
      <trkpt lat="46.55222" lon="4.9195">
        <ele>172.69</ele>
        <time>2012-09-07T09:59:11Z</time>
      </trkpt>
      <trkpt lat="46.55298" lon="4.91911">
        <ele>172.69</ele>
        <time>2012-09-07T09:59:29Z</time>
      </trkpt>
      <trkpt lat="46.55359" lon="4.91879">
        <ele>173.17</ele>
        <time>2012-09-07T09:59:45Z</time>
      </trkpt>
      <trkpt lat="46.55414" lon="4.91848">
        <ele>173.17</ele>
        <time>2012-09-07T10:00:00Z</time>
      </trkpt>
      <trkpt lat="46.55457" lon="4.91825">
        <ele>174.14</ele>
        <time>2012-09-07T10:00:14Z</time>
      </trkpt>
      <trkpt lat="46.55493" lon="4.91804">
        <ele>174.62</ele>
        <time>2012-09-07T10:00:26Z</time>
      </trkpt>
      <trkpt lat="46.55492" lon="4.91802">
        <ele>174.62</ele>
        <time>2012-09-07T10:00:27Z</time>
      </trkpt>
      <trkpt lat="46.5549" lon="4.91802">
        <ele>174.14</ele>
        <time>2012-09-07T10:00:28Z</time>
      </trkpt>
      <trkpt lat="46.55489" lon="4.91802">
        <ele>174.62</ele>
        <time>2012-09-07T10:00:29Z</time>
      </trkpt>
      <trkpt lat="46.55488" lon="4.91804">
        <ele>174.14</ele>
        <time>2012-09-07T10:00:43Z</time>
      </trkpt>
      <trkpt lat="46.55488" lon="4.91805">
        <ele>174.14</ele>
        <time>2012-09-07T10:00:44Z</time>
      </trkpt>
      <trkpt lat="46.5549" lon="4.91806">
        <ele>174.14</ele>
        <time>2012-09-07T10:00:45Z</time>
      </trkpt>
      <trkpt lat="46.55491" lon="4.91806">
        <ele>174.14</ele>
        <time>2012-09-07T10:00:46Z</time>
      </trkpt>
      <trkpt lat="46.55493" lon="4.91806">
        <ele>174.14</ele>
        <time>2012-09-07T10:00:47Z</time>
      </trkpt>
      <trkpt lat="46.55494" lon="4.91806">
        <ele>175.58</ele>
        <time>2012-09-07T10:00:48Z</time>
      </trkpt>
      <trkpt lat="46.55496" lon="4.91805">
        <ele>174.62</ele>
        <time>2012-09-07T10:00:49Z</time>
      </trkpt>
      <trkpt lat="46.55533" lon="4.91785">
        <ele>174.62</ele>
        <time>2012-09-07T10:01:01Z</time>
      </trkpt>
      <trkpt lat="46.55577" lon="4.91768">
        <ele>175.1</ele>
        <time>2012-09-07T10:01:14Z</time>
      </trkpt>
      <trkpt lat="46.55603" lon="4.91761">
        <ele>174.14</ele>
        <time>2012-09-07T10:01:21Z</time>
      </trkpt>
      <trkpt lat="46.5568" lon="4.91741">
        <ele>174.62</ele>
        <time>2012-09-07T10:01:38Z</time>
      </trkpt>
      <trkpt lat="46.55701" lon="4.91736">
        <ele>175.1</ele>
        <time>2012-09-07T10:01:43Z</time>
      </trkpt>
      <trkpt lat="46.55773" lon="4.91697">
        <ele>174.62</ele>
        <time>2012-09-07T10:02:01Z</time>
      </trkpt>
      <trkpt lat="46.55843" lon="4.91655">
        <ele>174.62</ele>
        <time>2012-09-07T10:02:19Z</time>
      </trkpt>
      <trkpt lat="46.55875" lon="4.91627">
        <ele>174.62</ele>
        <time>2012-09-07T10:02:31Z</time>
      </trkpt>
      <trkpt lat="46.55875" lon="4.91622">
        <ele>174.62</ele>
        <time>2012-09-07T10:02:32Z</time>
      </trkpt>
      <trkpt lat="46.55874" lon="4.91618">
        <ele>175.1</ele>
        <time>2012-09-07T10:02:33Z</time>
      </trkpt>
      <trkpt lat="46.55873" lon="4.91615">
        <ele>175.1</ele>
        <time>2012-09-07T10:02:34Z</time>
      </trkpt>
      <trkpt lat="46.55871" lon="4.91613">
        <ele>175.1</ele>
        <time>2012-09-07T10:02:35Z</time>
      </trkpt>
      <trkpt lat="46.5587" lon="4.91581">
        <ele>176.06</ele>
        <time>2012-09-07T10:02:45Z</time>
      </trkpt>
      <trkpt lat="46.55888" lon="4.91555">
        <ele>175.58</ele>
        <time>2012-09-07T10:02:56Z</time>
      </trkpt>
      <trkpt lat="46.55917" lon="4.91538">
        <ele>176.06</ele>
        <time>2012-09-07T10:03:07Z</time>
      </trkpt>
      <trkpt lat="46.55918" lon="4.91538">
        <ele>175.58</ele>
        <time>2012-09-07T10:03:23Z</time>
      </trkpt>
      <trkpt lat="46.55919" lon="4.91535">
        <ele>173.66</ele>
        <time>2012-09-07T10:03:38Z</time>
      </trkpt>
      <trkpt lat="46.55919" lon="4.91535">
        <ele>175.58</ele>
        <time>2012-09-07T10:03:40Z</time>
      </trkpt>
      <trkpt lat="46.55952" lon="4.9157">
        <ele>174.62</ele>
        <time>2012-09-07T10:17:52Z</time>
      </trkpt>
      <trkpt lat="46.55953" lon="4.91573">
        <ele>174.62</ele>
        <time>2012-09-07T10:17:53Z</time>
      </trkpt>
      <trkpt lat="46.55956" lon="4.91576">
        <ele>175.1</ele>
        <time>2012-09-07T10:17:56Z</time>
      </trkpt>
      <trkpt lat="46.55971" lon="4.91576">
        <ele>176.54</ele>
        <time>2012-09-07T10:18:05Z</time>
      </trkpt>
      <trkpt lat="46.56017" lon="4.91543">
        <ele>176.54</ele>
        <time>2012-09-07T10:18:23Z</time>
      </trkpt>
      <trkpt lat="46.56056" lon="4.915">
        <ele>177.02</ele>
        <time>2012-09-07T10:18:38Z</time>
      </trkpt>
      <trkpt lat="46.5611" lon="4.91444">
        <ele>177.02</ele>
        <time>2012-09-07T10:18:54Z</time>
      </trkpt>
      <trkpt lat="46.56151" lon="4.91399">
        <ele>177.02</ele>
        <time>2012-09-07T10:19:09Z</time>
      </trkpt>
      <trkpt lat="46.56203" lon="4.91353">
        <ele>177.02</ele>
        <time>2012-09-07T10:19:26Z</time>
      </trkpt>
      <trkpt lat="46.56265" lon="4.91303">
        <ele>177.02</ele>
        <time>2012-09-07T10:19:44Z</time>
      </trkpt>
      <trkpt lat="46.56305" lon="4.91269">
        <ele>177.02</ele>
        <time>2012-09-07T10:19:55Z</time>
      </trkpt>
      <trkpt lat="46.56324" lon="4.91255">
        <ele>177.02</ele>
        <time>2012-09-07T10:20:00Z</time>
      </trkpt>
      <trkpt lat="46.56368" lon="4.91231">
        <ele>179.42</ele>
        <time>2012-09-07T10:20:13Z</time>
      </trkpt>
      <trkpt lat="46.56378" lon="4.91225">
        <ele>179.9</ele>
        <time>2012-09-07T10:20:23Z</time>
      </trkpt>
      <trkpt lat="46.56382" lon="4.91223">
        <ele>179.9</ele>
        <time>2012-09-07T10:20:26Z</time>
      </trkpt>
      <trkpt lat="46.56383" lon="4.91222">
        <ele>180.38</ele>
        <time>2012-09-07T10:20:27Z</time>
      </trkpt>
      <trkpt lat="46.56406" lon="4.91211">
        <ele>181.83</ele>
        <time>2012-09-07T10:20:42Z</time>
      </trkpt>
      <trkpt lat="46.56407" lon="4.91211">
        <ele>181.83</ele>
        <time>2012-09-07T10:20:45Z</time>
      </trkpt>
      <trkpt lat="46.56442" lon="4.91194">
        <ele>179.9</ele>
        <time>2012-09-07T10:20:54Z</time>
      </trkpt>
      <trkpt lat="46.56522" lon="4.91157">
        <ele>177.5</ele>
        <time>2012-09-07T10:21:08Z</time>
      </trkpt>
      <trkpt lat="46.56579" lon="4.91127">
        <ele>177.02</ele>
        <time>2012-09-07T10:21:22Z</time>
      </trkpt>
      <trkpt lat="46.56612" lon="4.91119">
        <ele>177.02</ele>
        <time>2012-09-07T10:21:31Z</time>
      </trkpt>
      <trkpt lat="46.56644" lon="4.91113">
        <ele>177.02</ele>
        <time>2012-09-07T10:21:38Z</time>
      </trkpt>
      <trkpt lat="46.56695" lon="4.91086">
        <ele>177.5</ele>
        <time>2012-09-07T10:21:52Z</time>
      </trkpt>
      <trkpt lat="46.56699" lon="4.91084">
        <ele>177.5</ele>
        <time>2012-09-07T10:21:55Z</time>
      </trkpt>
      <trkpt lat="46.56703" lon="4.9108">
        <ele>177.5</ele>
        <time>2012-09-07T10:22:04Z</time>
      </trkpt>
      <trkpt lat="46.56704" lon="4.91079">
        <ele>177.5</ele>
        <time>2012-09-07T10:22:05Z</time>
      </trkpt>
      <trkpt lat="46.56743" lon="4.91046">
        <ele>177.98</ele>
        <time>2012-09-07T10:22:19Z</time>
      </trkpt>
      <trkpt lat="46.56758" lon="4.91034">
        <ele>177.98</ele>
        <time>2012-09-07T10:22:23Z</time>
      </trkpt>
      <trkpt lat="46.56839" lon="4.90991">
        <ele>177.98</ele>
        <time>2012-09-07T10:22:41Z</time>
      </trkpt>
      <trkpt lat="46.56915" lon="4.90952">
        <ele>178.46</ele>
        <time>2012-09-07T10:22:58Z</time>
      </trkpt>
      <trkpt lat="46.5692" lon="4.9095">
        <ele>177.98</ele>
        <time>2012-09-07T10:22:59Z</time>
      </trkpt>
      <trkpt lat="46.57005" lon="4.90911">
        <ele>178.94</ele>
        <time>2012-09-07T10:23:18Z</time>
      </trkpt>
      <trkpt lat="46.57077" lon="4.90897">
        <ele>179.42</ele>
        <time>2012-09-07T10:23:36Z</time>
      </trkpt>
      <trkpt lat="46.57153" lon="4.90864">
        <ele>180.38</ele>
        <time>2012-09-07T10:23:56Z</time>
      </trkpt>
      <trkpt lat="46.57183" lon="4.90849">
        <ele>180.87</ele>
        <time>2012-09-07T10:24:04Z</time>
      </trkpt>
      <trkpt lat="46.57204" lon="4.90847">
        <ele>180.87</ele>
        <time>2012-09-07T10:24:09Z</time>
      </trkpt>
      <trkpt lat="46.57262" lon="4.90869">
        <ele>181.35</ele>
        <time>2012-09-07T10:24:24Z</time>
      </trkpt>
      <trkpt lat="46.5733" lon="4.90904">
        <ele>180.87</ele>
        <time>2012-09-07T10:24:41Z</time>
      </trkpt>
      <trkpt lat="46.57353" lon="4.90912">
        <ele>179.9</ele>
        <time>2012-09-07T10:24:46Z</time>
      </trkpt>
      <trkpt lat="46.57375" lon="4.90931">
        <ele>179.42</ele>
        <time>2012-09-07T10:24:53Z</time>
      </trkpt>
      <trkpt lat="46.57375" lon="4.90935">
        <ele>179.42</ele>
        <time>2012-09-07T10:24:54Z</time>
      </trkpt>
      <trkpt lat="46.57373" lon="4.90939">
        <ele>178.94</ele>
        <time>2012-09-07T10:24:55Z</time>
      </trkpt>
      <trkpt lat="46.57364" lon="4.90952">
        <ele>178.94</ele>
        <time>2012-09-07T10:25:05Z</time>
      </trkpt>
      <trkpt lat="46.57362" lon="4.90953">
        <ele>178.94</ele>
        <time>2012-09-07T10:25:30Z</time>
      </trkpt>
      <trkpt lat="46.57361" lon="4.90953">
        <ele>178.46</ele>
        <time>2012-09-07T10:25:58Z</time>
      </trkpt>
      <trkpt lat="46.57361" lon="4.90954">
        <ele>178.46</ele>
        <time>2012-09-07T10:26:29Z</time>
      </trkpt>
      <trkpt lat="46.5736" lon="4.90954">
        <ele>178.46</ele>
        <time>2012-09-07T10:27:07Z</time>
      </trkpt>
      <trkpt lat="46.57361" lon="4.90956">
        <ele>178.46</ele>
        <time>2012-09-07T10:27:47Z</time>
      </trkpt>
      <trkpt lat="46.57363" lon="4.90955">
        <ele>177.98</ele>
        <time>2012-09-07T10:28:19Z</time>
      </trkpt>
      <trkpt lat="46.57363" lon="4.90954">
        <ele>177.98</ele>
        <time>2012-09-07T10:28:53Z</time>
      </trkpt>
      <trkpt lat="46.57361" lon="4.90953">
        <ele>177.98</ele>
        <time>2012-09-07T10:29:26Z</time>
      </trkpt>
      <trkpt lat="46.57362" lon="4.90952">
        <ele>177.98</ele>
        <time>2012-09-07T10:30:01Z</time>
      </trkpt>
      <trkpt lat="46.57363" lon="4.90952">
        <ele>177.98</ele>
        <time>2012-09-07T10:30:31Z</time>
      </trkpt>
      <trkpt lat="46.57363" lon="4.90952">
        <ele>177.98</ele>
        <time>2012-09-07T10:31:01Z</time>
      </trkpt>
      <trkpt lat="46.57363" lon="4.90952">
        <ele>177.98</ele>
        <time>2012-09-07T10:31:32Z</time>
      </trkpt>
      <trkpt lat="46.57363" lon="4.90954">
        <ele>177.98</ele>
        <time>2012-09-07T10:31:33Z</time>
      </trkpt>
      <trkpt lat="46.57363" lon="4.90955">
        <ele>177.98</ele>
        <time>2012-09-07T10:31:34Z</time>
      </trkpt>
      <trkpt lat="46.57354" lon="4.90968">
        <ele>177.98</ele>
        <time>2012-09-07T10:31:46Z</time>
      </trkpt>
      <trkpt lat="46.57352" lon="4.90969">
        <ele>177.98</ele>
        <time>2012-09-07T10:32:02Z</time>
      </trkpt>
      <trkpt lat="46.57351" lon="4.90969">
        <ele>177.98</ele>
        <time>2012-09-07T10:32:38Z</time>
      </trkpt>
      <trkpt lat="46.57352" lon="4.9097">
        <ele>177.98</ele>
        <time>2012-09-07T10:33:14Z</time>
      </trkpt>
      <trkpt lat="46.57352" lon="4.9097">
        <ele>177.98</ele>
        <time>2012-09-07T10:33:44Z</time>
      </trkpt>
      <trkpt lat="46.57353" lon="4.9097">
        <ele>177.98</ele>
        <time>2012-09-07T10:34:15Z</time>
      </trkpt>
      <trkpt lat="46.57352" lon="4.90971">
        <ele>177.98</ele>
        <time>2012-09-07T10:34:47Z</time>
      </trkpt>
      <trkpt lat="46.57352" lon="4.90971">
        <ele>177.98</ele>
        <time>2012-09-07T10:35:18Z</time>
      </trkpt>
      <trkpt lat="46.5735" lon="4.90971">
        <ele>178.46</ele>
        <time>2012-09-07T10:35:47Z</time>
      </trkpt>
      <trkpt lat="46.57349" lon="4.90973">
        <ele>178.46</ele>
        <time>2012-09-07T10:36:19Z</time>
      </trkpt>
      <trkpt lat="46.57349" lon="4.90973">
        <ele>178.46</ele>
        <time>2012-09-07T10:36:52Z</time>
      </trkpt>
      <trkpt lat="46.57347" lon="4.90975">
        <ele>178.46</ele>
        <time>2012-09-07T10:37:28Z</time>
      </trkpt>
      <trkpt lat="46.57347" lon="4.90977">
        <ele>178.46</ele>
        <time>2012-09-07T10:37:59Z</time>
      </trkpt>
      <trkpt lat="46.57348" lon="4.90976">
        <ele>178.94</ele>
        <time>2012-09-07T10:38:33Z</time>
      </trkpt>
      <trkpt lat="46.57349" lon="4.90975">
        <ele>178.94</ele>
        <time>2012-09-07T10:39:06Z</time>
      </trkpt>
      <trkpt lat="46.57347" lon="4.90977">
        <ele>178.94</ele>
        <time>2012-09-07T10:39:38Z</time>
      </trkpt>
      <trkpt lat="46.57347" lon="4.90975">
        <ele>178.94</ele>
        <time>2012-09-07T10:40:09Z</time>
      </trkpt>
      <trkpt lat="46.57348" lon="4.90975">
        <ele>178.94</ele>
        <time>2012-09-07T10:40:43Z</time>
      </trkpt>
      <trkpt lat="46.57348" lon="4.90975">
        <ele>178.94</ele>
        <time>2012-09-07T10:41:12Z</time>
      </trkpt>
      <trkpt lat="46.57349" lon="4.90975">
        <ele>179.42</ele>
        <time>2012-09-07T10:41:48Z</time>
      </trkpt>
      <trkpt lat="46.57348" lon="4.90972">
        <ele>179.42</ele>
        <time>2012-09-07T10:42:27Z</time>
      </trkpt>
      <trkpt lat="46.57349" lon="4.90972">
        <ele>179.42</ele>
        <time>2012-09-07T10:43:02Z</time>
      </trkpt>
      <trkpt lat="46.57349" lon="4.90972">
        <ele>179.42</ele>
        <time>2012-09-07T10:43:36Z</time>
      </trkpt>
      <trkpt lat="46.57348" lon="4.90973">
        <ele>179.42</ele>
        <time>2012-09-07T10:44:13Z</time>
      </trkpt>
      <trkpt lat="46.57349" lon="4.90975">
        <ele>179.9</ele>
        <time>2012-09-07T10:44:51Z</time>
      </trkpt>
      <trkpt lat="46.57349" lon="4.90973">
        <ele>179.9</ele>
        <time>2012-09-07T10:45:28Z</time>
      </trkpt>
      <trkpt lat="46.5735" lon="4.9097">
        <ele>180.38</ele>
        <time>2012-09-07T10:46:01Z</time>
      </trkpt>
      <trkpt lat="46.57349" lon="4.9097">
        <ele>179.9</ele>
        <time>2012-09-07T10:46:37Z</time>
      </trkpt>
      <trkpt lat="46.57349" lon="4.90969">
        <ele>180.38</ele>
        <time>2012-09-07T10:47:09Z</time>
      </trkpt>
      <trkpt lat="46.5735" lon="4.90971">
        <ele>180.38</ele>
        <time>2012-09-07T10:47:46Z</time>
      </trkpt>
      <trkpt lat="46.57351" lon="4.9097">
        <ele>180.38</ele>
        <time>2012-09-07T10:48:20Z</time>
      </trkpt>
      <trkpt lat="46.5735" lon="4.9097">
        <ele>180.38</ele>
        <time>2012-09-07T10:48:53Z</time>
      </trkpt>
      <trkpt lat="46.5735" lon="4.90971">
        <ele>180.38</ele>
        <time>2012-09-07T10:49:23Z</time>
      </trkpt>
      <trkpt lat="46.57352" lon="4.90968">
        <ele>180.38</ele>
        <time>2012-09-07T10:49:58Z</time>
      </trkpt>
      <trkpt lat="46.57352" lon="4.90968">
        <ele>180.38</ele>
        <time>2012-09-07T10:50:36Z</time>
      </trkpt>
      <trkpt lat="46.57352" lon="4.9097">
        <ele>180.87</ele>
        <time>2012-09-07T10:51:17Z</time>
      </trkpt>
      <trkpt lat="46.57353" lon="4.90969">
        <ele>180.87</ele>
        <time>2012-09-07T10:51:53Z</time>
      </trkpt>
      <trkpt lat="46.57354" lon="4.90969">
        <ele>180.87</ele>
        <time>2012-09-07T10:52:29Z</time>
      </trkpt>
      <trkpt lat="46.57353" lon="4.90969">
        <ele>180.87</ele>
        <time>2012-09-07T10:53:09Z</time>
      </trkpt>
      <trkpt lat="46.57353" lon="4.90968">
        <ele>180.87</ele>
        <time>2012-09-07T10:53:43Z</time>
      </trkpt>
      <trkpt lat="46.57354" lon="4.90968">
        <ele>180.87</ele>
        <time>2012-09-07T10:54:21Z</time>
      </trkpt>
      <trkpt lat="46.57355" lon="4.90969">
        <ele>180.87</ele>
        <time>2012-09-07T10:54:52Z</time>
      </trkpt>
      <trkpt lat="46.57355" lon="4.90969">
        <ele>180.87</ele>
        <time>2012-09-07T10:55:22Z</time>
      </trkpt>
      <trkpt lat="46.57354" lon="4.9097">
        <ele>180.38</ele>
        <time>2012-09-07T10:55:59Z</time>
      </trkpt>
      <trkpt lat="46.57353" lon="4.9097">
        <ele>180.38</ele>
        <time>2012-09-07T10:56:31Z</time>
      </trkpt>
      <trkpt lat="46.57354" lon="4.9097">
        <ele>180.87</ele>
        <time>2012-09-07T10:57:03Z</time>
      </trkpt>
      <trkpt lat="46.57354" lon="4.90969">
        <ele>180.87</ele>
        <time>2012-09-07T10:57:29Z</time>
      </trkpt>
      <trkpt lat="46.57354" lon="4.90969">
        <ele>180.38</ele>
        <time>2012-09-07T10:57:55Z</time>
      </trkpt>
      <trkpt lat="46.57353" lon="4.9097">
        <ele>180.38</ele>
        <time>2012-09-07T10:57:57Z</time>
      </trkpt>
      <trkpt lat="46.57354" lon="4.90972">
        <ele>180.38</ele>
        <time>2012-09-07T10:57:58Z</time>
      </trkpt>
      <trkpt lat="46.57355" lon="4.90973">
        <ele>180.38</ele>
        <time>2012-09-07T10:57:59Z</time>
      </trkpt>
      <trkpt lat="46.57365" lon="4.91">
        <ele>179.9</ele>
        <time>2012-09-07T10:58:18Z</time>
      </trkpt>
      <trkpt lat="46.57366" lon="4.91015">
        <ele>178.94</ele>
        <time>2012-09-07T10:58:36Z</time>
      </trkpt>
      <trkpt lat="46.57366" lon="4.91016">
        <ele>178.46</ele>
        <time>2012-09-07T10:59:02Z</time>
      </trkpt>
      <trkpt lat="46.57367" lon="4.91037">
        <ele>177.98</ele>
        <time>2012-09-07T10:59:19Z</time>
      </trkpt>
      <trkpt lat="46.57365" lon="4.91066">
        <ele>177.98</ele>
        <time>2012-09-07T10:59:36Z</time>
      </trkpt>
      <trkpt lat="46.57366" lon="4.911">
        <ele>177.98</ele>
        <time>2012-09-07T10:59:56Z</time>
      </trkpt>
      <trkpt lat="46.57368" lon="4.91117">
        <ele>177.5</ele>
        <time>2012-09-07T11:00:11Z</time>
      </trkpt>
      <trkpt lat="46.57368" lon="4.91118">
        <ele>177.5</ele>
        <time>2012-09-07T11:00:38Z</time>
      </trkpt>
      <trkpt lat="46.57369" lon="4.91116">
        <ele>177.5</ele>
        <time>2012-09-07T11:01:12Z</time>
      </trkpt>
      <trkpt lat="46.5737" lon="4.91114">
        <ele>177.5</ele>
        <time>2012-09-07T11:01:26Z</time>
      </trkpt>
      <trkpt lat="46.5737" lon="4.91113">
        <ele>177.5</ele>
        <time>2012-09-07T11:01:27Z</time>
      </trkpt>
      <trkpt lat="46.57374" lon="4.91089">
        <ele>177.5</ele>
        <time>2012-09-07T11:01:42Z</time>
      </trkpt>
      <trkpt lat="46.57374" lon="4.91088">
        <ele>177.5</ele>
        <time>2012-09-07T11:01:43Z</time>
      </trkpt>
      <trkpt lat="46.57385" lon="4.91083">
        <ele>177.5</ele>
        <time>2012-09-07T11:01:58Z</time>
      </trkpt>
      <trkpt lat="46.57385" lon="4.9108">
        <ele>177.5</ele>
        <time>2012-09-07T11:02:12Z</time>
      </trkpt>
      <trkpt lat="46.57383" lon="4.91076">
        <ele>177.5</ele>
        <time>2012-09-07T11:02:24Z</time>
      </trkpt>
      <trkpt lat="46.57382" lon="4.91073">
        <ele>177.5</ele>
        <time>2012-09-07T11:02:35Z</time>
      </trkpt>
      <trkpt lat="46.57382" lon="4.91073">
        <ele>177.5</ele>
        <time>2012-09-07T11:03:02Z</time>
      </trkpt>
    </trkseg>
  </trk>
</gpx>